<?xml version="1.0" encoding="UTF-8" standalone="no" ?><gpx xmlns="http://www.topografix.com/GPX/1/1" xmlns:gpxx="http://www.garmin.com/xmlschemas/GpxExtensions/v3" xmlns:wptx1="http://www.garmin.com/xmlschemas/WaypointExtension/v1" xmlns:gpxtpx="http://www.garmin.com/xmlschemas/TrackPointExtension/v1" creator="GuideVTT.com" version="1.1" xmlns:xsi="http://www.w3.org/2001/XMLSchema-instance" xsi:schemaLocation="http://www.topografix.com/GPX/1/1 http://www.topografix.com/GPX/1/1/gpx.xsd http://www.garmin.com/xmlschemas/GpxExtensions/v3 http://www8.garmin.com/xmlschemas/GpxExtensionsv3.xsd http://www.garmin.com/xmlschemas/WaypointExtension/v1 http://www8.garmin.com/xmlschemas/WaypointExtensionv1.xsd http://www.garmin.com/xmlschemas/TrackPointExtension/v1 http://www.garmin.com/xmlschemas/TrackPointExtensionv1.xsd">
<metadata><link href="http://www.garmin.com"><text>Garmin International</text></link><time>2013-06-22T15:13:50Z</time></metadata>
<trk><name>fileoutfafa3.gpx</name><extensions><gpxx:TrackExtension><gpxx:DisplayColor>Cyan</gpxx:DisplayColor></gpxx:TrackExtension></extensions><trkseg>
<trkpt lat="48.04958532" lon="0.41383568"><ele>56.855103</ele><time>2007-07-26T16:55:48Z</time></trkpt>
<trkpt lat="48.04958515" lon="0.41387449"><ele>56.374512</ele><time>2007-07-26T16:55:49Z</time></trkpt>
<trkpt lat="48.04958289" lon="0.41391296"><ele>56.374512</ele><time>2007-07-26T16:55:50Z</time></trkpt>
<trkpt lat="48.04957727" lon="0.41400047"><ele>56.855103</ele><time>2007-07-26T16:55:52Z</time></trkpt>
<trkpt lat="48.04957408" lon="0.41404992"><ele>56.855103</ele><time>2007-07-26T16:55:53Z</time></trkpt>
<trkpt lat="48.04954433" lon="0.41452233"><ele>55.893799</ele><time>2007-07-26T16:56:01Z</time></trkpt>
<trkpt lat="48.04952295" lon="0.41471729"><ele>56.855103</ele><time>2007-07-26T16:56:04Z</time></trkpt>
<trkpt lat="48.04943553" lon="0.41495467"><ele>56.374512</ele><time>2007-07-26T16:56:09Z</time></trkpt>
<trkpt lat="48.04944064" lon="0.41520914"><ele>56.374512</ele><time>2007-07-26T16:56:14Z</time></trkpt>
<trkpt lat="48.04946738" lon="0.41545632"><ele>56.374512</ele><time>2007-07-26T16:56:18Z</time></trkpt>
<trkpt lat="48.04947208" lon="0.41552262"><ele>56.374512</ele><time>2007-07-26T16:56:19Z</time></trkpt>
<trkpt lat="48.04949169" lon="0.41572530"><ele>56.374512</ele><time>2007-07-26T16:56:22Z</time></trkpt>
<trkpt lat="48.04951918" lon="0.41599863"><ele>57.335815</ele><time>2007-07-26T16:56:26Z</time></trkpt>
<trkpt lat="48.04956009" lon="0.41633726"><ele>57.816528</ele><time>2007-07-26T16:56:31Z</time></trkpt>
<trkpt lat="48.04954165" lon="0.41646777"><ele>57.335815</ele><time>2007-07-26T16:56:33Z</time></trkpt>
<trkpt lat="48.04950954" lon="0.41651378"><ele>57.335815</ele><time>2007-07-26T16:56:34Z</time></trkpt>
<trkpt lat="48.04941977" lon="0.41653859"><ele>57.816528</ele><time>2007-07-26T16:56:36Z</time></trkpt>
<trkpt lat="48.04913454" lon="0.41657782"><ele>57.335815</ele><time>2007-07-26T16:56:42Z</time></trkpt>
<trkpt lat="48.04903865" lon="0.41659442"><ele>56.855103</ele><time>2007-07-26T16:56:44Z</time></trkpt>
<trkpt lat="48.04899163" lon="0.41660724"><ele>56.855103</ele><time>2007-07-26T16:56:45Z</time></trkpt>
<trkpt lat="48.04849609" lon="0.41670422"><ele>56.855103</ele><time>2007-07-26T16:56:55Z</time></trkpt>
<trkpt lat="48.04823935" lon="0.41674864"><ele>56.855103</ele><time>2007-07-26T16:57:01Z</time></trkpt>
<trkpt lat="48.04820515" lon="0.41675342"><ele>56.374512</ele><time>2007-07-26T16:57:02Z</time></trkpt>
<trkpt lat="48.04810457" lon="0.41674890"><ele>57.335815</ele><time>2007-07-26T16:57:06Z</time></trkpt>
<trkpt lat="48.04790718" lon="0.41676776"><ele>57.816528</ele><time>2007-07-26T16:57:12Z</time></trkpt>
<trkpt lat="48.04764650" lon="0.41679843"><ele>57.816528</ele><time>2007-07-26T16:57:19Z</time></trkpt>
<trkpt lat="48.04750266" lon="0.41682249"><ele>57.816528</ele><time>2007-07-26T16:57:23Z</time></trkpt>
<trkpt lat="48.04744843" lon="0.41682333"><ele>58.77771</ele><time>2007-07-26T16:57:33Z</time></trkpt>
<trkpt lat="48.04743242" lon="0.41682215"><ele>58.77771</ele><time>2007-07-26T16:57:34Z</time></trkpt>
<trkpt lat="48.04729085" lon="0.41683783"><ele>58.297119</ele><time>2007-07-26T16:57:38Z</time></trkpt>
<trkpt lat="48.04698810" lon="0.41687546"><ele>56.855103</ele><time>2007-07-26T16:57:45Z</time></trkpt>
<trkpt lat="48.04688727" lon="0.41688946"><ele>56.855103</ele><time>2007-07-26T16:57:47Z</time></trkpt>
<trkpt lat="48.04683689" lon="0.41689566"><ele>57.335815</ele><time>2007-07-26T16:57:48Z</time></trkpt>
<trkpt lat="48.04673589" lon="0.41690874"><ele>56.374512</ele><time>2007-07-26T16:57:50Z</time></trkpt>
<trkpt lat="48.04668526" lon="0.41692475"><ele>56.374512</ele><time>2007-07-26T16:57:51Z</time></trkpt>
<trkpt lat="48.04655878" lon="0.41695626"><ele>56.374512</ele><time>2007-07-26T16:57:54Z</time></trkpt>
<trkpt lat="48.04652969" lon="0.41696146"><ele>56.374512</ele><time>2007-07-26T16:57:55Z</time></trkpt>
<trkpt lat="48.04647915" lon="0.41702516"><ele>55.893799</ele><time>2007-07-26T16:58:53Z</time></trkpt>
<trkpt lat="48.04646985" lon="0.41703070"><ele>55.893799</ele><time>2007-07-26T16:58:54Z</time></trkpt>
<trkpt lat="48.04636055" lon="0.41708526"><ele>56.374512</ele><time>2007-07-26T16:58:57Z</time></trkpt>
<trkpt lat="48.04633180" lon="0.41711577"><ele>56.374512</ele><time>2007-07-26T16:58:58Z</time></trkpt>
<trkpt lat="48.04630883" lon="0.41725885"><ele>56.855103</ele><time>2007-07-26T16:59:01Z</time></trkpt>
<trkpt lat="48.04630053" lon="0.41744065"><ele>57.816528</ele><time>2007-07-26T16:59:04Z</time></trkpt>
<trkpt lat="48.04628804" lon="0.41749975"><ele>58.297119</ele><time>2007-07-26T16:59:05Z</time></trkpt>
<trkpt lat="48.04624228" lon="0.41768700"><ele>57.816528</ele><time>2007-07-26T16:59:08Z</time></trkpt>
<trkpt lat="48.04622727" lon="0.41775439"><ele>58.297119</ele><time>2007-07-26T16:59:09Z</time></trkpt>
<trkpt lat="48.04609283" lon="0.41834523"><ele>57.816528</ele><time>2007-07-26T16:59:17Z</time></trkpt>
<trkpt lat="48.04593525" lon="0.41862770"><ele>56.855103</ele><time>2007-07-26T16:59:21Z</time></trkpt>
<trkpt lat="48.04571506" lon="0.41886608"><ele>55.893799</ele><time>2007-07-26T16:59:25Z</time></trkpt>
<trkpt lat="48.04565974" lon="0.41892283"><ele>55.893799</ele><time>2007-07-26T16:59:26Z</time></trkpt>
<trkpt lat="48.04555027" lon="0.41897169"><ele>56.374512</ele><time>2007-07-26T16:59:28Z</time></trkpt>
<trkpt lat="48.04544767" lon="0.41885812"><ele>55.413086</ele><time>2007-07-26T16:59:31Z</time></trkpt>
<trkpt lat="48.04544063" lon="0.41879618"><ele>55.893799</ele><time>2007-07-26T16:59:32Z</time></trkpt>
<trkpt lat="48.04534986" lon="0.41838597"><ele>55.413086</ele><time>2007-07-26T16:59:38Z</time></trkpt>
<trkpt lat="48.04527459" lon="0.41819829"><ele>54.932373</ele><time>2007-07-26T16:59:41Z</time></trkpt>
<trkpt lat="48.04512455" lon="0.41806058"><ele>55.413086</ele><time>2007-07-26T16:59:45Z</time></trkpt>
<trkpt lat="48.04498047" lon="0.41797710"><ele>55.893799</ele><time>2007-07-26T16:59:48Z</time></trkpt>
<trkpt lat="48.04483605" lon="0.41771868"><ele>55.413086</ele><time>2007-07-26T16:59:52Z</time></trkpt>
<trkpt lat="48.04481274" lon="0.41765272"><ele>55.413086</ele><time>2007-07-26T16:59:53Z</time></trkpt>
<trkpt lat="48.04477067" lon="0.41753034"><ele>55.893799</ele><time>2007-07-26T16:59:55Z</time></trkpt>
<trkpt lat="48.04474795" lon="0.41747695"><ele>55.413086</ele><time>2007-07-26T16:59:56Z</time></trkpt>
<trkpt lat="48.04472624" lon="0.41742305"><ele>55.413086</ele><time>2007-07-26T16:59:57Z</time></trkpt>
<trkpt lat="48.04469909" lon="0.41736505"><ele>55.893799</ele><time>2007-07-26T16:59:58Z</time></trkpt>
<trkpt lat="48.04467092" lon="0.41730453"><ele>55.893799</ele><time>2007-07-26T16:59:59Z</time></trkpt>
<trkpt lat="48.04455919" lon="0.41706732"><ele>55.413086</ele><time>2007-07-26T17:00:03Z</time></trkpt>
<trkpt lat="48.04452734" lon="0.41699164"><ele>55.413086</ele><time>2007-07-26T17:00:04Z</time></trkpt>
<trkpt lat="48.04449155" lon="0.41691964"><ele>55.413086</ele><time>2007-07-26T17:00:05Z</time></trkpt>
<trkpt lat="48.04445735" lon="0.41685107"><ele>55.413086</ele><time>2007-07-26T17:00:06Z</time></trkpt>
<trkpt lat="48.04433456" lon="0.41657908"><ele>53.971191</ele><time>2007-07-26T17:00:10Z</time></trkpt>
<trkpt lat="48.04426390" lon="0.41644656"><ele>54.451782</ele><time>2007-07-26T17:00:12Z</time></trkpt>
<trkpt lat="48.04412367" lon="0.41621447"><ele>54.932373</ele><time>2007-07-26T17:00:16Z</time></trkpt>
<trkpt lat="48.04383717" lon="0.41549144"><ele>54.932373</ele><time>2007-07-26T17:00:26Z</time></trkpt>
<trkpt lat="48.04378579" lon="0.41534359"><ele>55.893799</ele><time>2007-07-26T17:00:28Z</time></trkpt>
<trkpt lat="48.04371396" lon="0.41513077"><ele>56.855103</ele><time>2007-07-26T17:00:31Z</time></trkpt>
<trkpt lat="48.04368890" lon="0.41506019"><ele>56.374512</ele><time>2007-07-26T17:00:32Z</time></trkpt>
<trkpt lat="48.04346066" lon="0.41441680"><ele>55.893799</ele><time>2007-07-26T17:00:41Z</time></trkpt>
<trkpt lat="48.04340827" lon="0.41427146"><ele>55.413086</ele><time>2007-07-26T17:00:43Z</time></trkpt>
<trkpt lat="48.04320074" lon="0.41371616"><ele>56.855103</ele><time>2007-07-26T17:00:51Z</time></trkpt>
<trkpt lat="48.04294425" lon="0.41306505"><ele>57.816528</ele><time>2007-07-26T17:01:01Z</time></trkpt>
<trkpt lat="48.04284392" lon="0.41281334"><ele>55.893799</ele><time>2007-07-26T17:01:05Z</time></trkpt>
<trkpt lat="48.04279380" lon="0.41268703"><ele>55.893799</ele><time>2007-07-26T17:01:07Z</time></trkpt>
<trkpt lat="48.04271559" lon="0.41249433"><ele>54.932373</ele><time>2007-07-26T17:01:10Z</time></trkpt>
<trkpt lat="48.04266404" lon="0.41236449"><ele>56.855103</ele><time>2007-07-26T17:01:12Z</time></trkpt>
<trkpt lat="48.04256539" lon="0.41211823"><ele>54.451782</ele><time>2007-07-26T17:01:16Z</time></trkpt>
<trkpt lat="48.04253932" lon="0.41205855"><ele>55.413086</ele><time>2007-07-26T17:01:17Z</time></trkpt>
<trkpt lat="48.04246363" lon="0.41186904"><ele>56.374512</ele><time>2007-07-26T17:01:20Z</time></trkpt>
<trkpt lat="48.04244067" lon="0.41180274"><ele>55.413086</ele><time>2007-07-26T17:01:21Z</time></trkpt>
<trkpt lat="48.04241803" lon="0.41173593"><ele>55.413086</ele><time>2007-07-26T17:01:22Z</time></trkpt>
<trkpt lat="48.04230228" lon="0.41139722"><ele>55.413086</ele><time>2007-07-26T17:01:27Z</time></trkpt>
<trkpt lat="48.04225744" lon="0.41125632"><ele>55.413086</ele><time>2007-07-26T17:01:29Z</time></trkpt>
<trkpt lat="48.04223573" lon="0.41118608"><ele>55.413086</ele><time>2007-07-26T17:01:30Z</time></trkpt>
<trkpt lat="48.04212375" lon="0.41083974"><ele>54.451782</ele><time>2007-07-26T17:01:35Z</time></trkpt>
<trkpt lat="48.04197413" lon="0.41036264"><ele>55.893799</ele><time>2007-07-26T17:01:42Z</time></trkpt>
<trkpt lat="48.04188746" lon="0.41034697"><ele>55.893799</ele><time>2007-07-26T17:01:46Z</time></trkpt>
<trkpt lat="48.04183398" lon="0.41028813"><ele>55.413086</ele><time>2007-07-26T17:01:49Z</time></trkpt>
<trkpt lat="48.04168076" lon="0.40978848"><ele>56.374512</ele><time>2007-07-26T17:01:58Z</time></trkpt>
<trkpt lat="48.04158806" lon="0.40949436"><ele>56.374512</ele><time>2007-07-26T17:02:03Z</time></trkpt>
<trkpt lat="48.04155135" lon="0.40937735"><ele>55.893799</ele><time>2007-07-26T17:02:05Z</time></trkpt>
<trkpt lat="48.04153215" lon="0.40932018"><ele>56.855103</ele><time>2007-07-26T17:02:06Z</time></trkpt>
<trkpt lat="48.04137063" lon="0.40880646"><ele>55.893799</ele><time>2007-07-26T17:02:15Z</time></trkpt>
<trkpt lat="48.04135404" lon="0.40874829"><ele>56.855103</ele><time>2007-07-26T17:02:16Z</time></trkpt>
<trkpt lat="48.04127743" lon="0.40846850"><ele>57.335815</ele><time>2007-07-26T17:02:21Z</time></trkpt>
<trkpt lat="48.04124574" lon="0.40837890"><ele>56.374512</ele><time>2007-07-26T17:02:23Z</time></trkpt>
<trkpt lat="48.04115798" lon="0.40832953"><ele>56.374512</ele><time>2007-07-26T17:02:26Z</time></trkpt>
<trkpt lat="48.04112806" lon="0.40833204"><ele>57.335815</ele><time>2007-07-26T17:02:27Z</time></trkpt>
<trkpt lat="48.04103024" lon="0.40835006"><ele>55.893799</ele><time>2007-07-26T17:02:30Z</time></trkpt>
<trkpt lat="48.04098867" lon="0.40835777"><ele>56.855103</ele><time>2007-07-26T17:02:31Z</time></trkpt>
<trkpt lat="48.04085456" lon="0.40838233"><ele>56.374512</ele><time>2007-07-26T17:02:34Z</time></trkpt>
<trkpt lat="48.04052825" lon="0.40844939"><ele>57.816528</ele><time>2007-07-26T17:02:42Z</time></trkpt>
<trkpt lat="48.04020127" lon="0.40851845"><ele>57.335815</ele><time>2007-07-26T17:02:50Z</time></trkpt>
<trkpt lat="48.03990145" lon="0.40856816"><ele>58.297119</ele><time>2007-07-26T17:02:57Z</time></trkpt>
<trkpt lat="48.03981822" lon="0.40858475"><ele>57.816528</ele><time>2007-07-26T17:02:59Z</time></trkpt>
<trkpt lat="48.03977774" lon="0.40859305"><ele>57.816528</ele><time>2007-07-26T17:03:00Z</time></trkpt>
<trkpt lat="48.03973767" lon="0.40860076"><ele>57.816528</ele><time>2007-07-26T17:03:01Z</time></trkpt>
<trkpt lat="48.03969727" lon="0.40860873"><ele>57.816528</ele><time>2007-07-26T17:03:02Z</time></trkpt>
<trkpt lat="48.03954086" lon="0.40864695"><ele>58.297119</ele><time>2007-07-26T17:03:06Z</time></trkpt>
<trkpt lat="48.03939267" lon="0.40868249"><ele>58.297119</ele><time>2007-07-26T17:03:10Z</time></trkpt>
<trkpt lat="48.03931648" lon="0.40872524"><ele>58.77771</ele><time>2007-07-26T17:03:12Z</time></trkpt>
<trkpt lat="48.03927775" lon="0.40874845"><ele>59.258423</ele><time>2007-07-26T17:03:13Z</time></trkpt>
<trkpt lat="48.03906142" lon="0.40877234"><ele>58.297119</ele><time>2007-07-26T17:03:18Z</time></trkpt>
<trkpt lat="48.03871558" lon="0.40881174"><ele>59.258423</ele><time>2007-07-26T17:03:26Z</time></trkpt>
<trkpt lat="48.03839640" lon="0.40887343"><ele>59.258423</ele><time>2007-07-26T17:03:34Z</time></trkpt>
<trkpt lat="48.03837108" lon="0.40888139"><ele>59.739136</ele><time>2007-07-26T17:03:35Z</time></trkpt>
<trkpt lat="48.03833865" lon="0.40903252"><ele>59.258423</ele><time>2007-07-26T17:03:39Z</time></trkpt>
<trkpt lat="48.03841702" lon="0.40945622"><ele>59.258423</ele><time>2007-07-26T17:03:48Z</time></trkpt>
<trkpt lat="48.03847309" lon="0.40975864"><ele>59.258423</ele><time>2007-07-26T17:03:55Z</time></trkpt>
<trkpt lat="48.03850922" lon="0.40997154"><ele>58.297119</ele><time>2007-07-26T17:03:59Z</time></trkpt>
<trkpt lat="48.03855062" lon="0.41020347"><ele>59.258423</ele><time>2007-07-26T17:04:03Z</time></trkpt>
<trkpt lat="48.03858818" lon="0.41038477"><ele>58.77771</ele><time>2007-07-26T17:04:06Z</time></trkpt>
<trkpt lat="48.03860108" lon="0.41044512"><ele>58.297119</ele><time>2007-07-26T17:04:07Z</time></trkpt>
<trkpt lat="48.03864316" lon="0.41068903"><ele>59.258423</ele><time>2007-07-26T17:04:11Z</time></trkpt>
<trkpt lat="48.03865263" lon="0.41075114"><ele>59.258423</ele><time>2007-07-26T17:04:12Z</time></trkpt>
<trkpt lat="48.03869228" lon="0.41093403"><ele>58.77771</ele><time>2007-07-26T17:04:15Z</time></trkpt>
<trkpt lat="48.03871407" lon="0.41105574"><ele>58.77771</ele><time>2007-07-26T17:04:17Z</time></trkpt>
<trkpt lat="48.03873260" lon="0.41116688"><ele>58.77771</ele><time>2007-07-26T17:04:19Z</time></trkpt>
<trkpt lat="48.03881038" lon="0.41150736"><ele>58.77771</ele><time>2007-07-26T17:04:25Z</time></trkpt>
<trkpt lat="48.03890828" lon="0.41207112"><ele>59.739136</ele><time>2007-07-26T17:04:34Z</time></trkpt>
<trkpt lat="48.03902269" lon="0.41274813"><ele>59.739136</ele><time>2007-07-26T17:04:44Z</time></trkpt>
<trkpt lat="48.03914113" lon="0.41330293"><ele>59.739136</ele><time>2007-07-26T17:04:52Z</time></trkpt>
<trkpt lat="48.03923819" lon="0.41378095"><ele>60.700317</ele><time>2007-07-26T17:04:59Z</time></trkpt>
<trkpt lat="48.03938236" lon="0.41446173"><ele>60.219727</ele><time>2007-07-26T17:05:09Z</time></trkpt>
<trkpt lat="48.03939569" lon="0.41459768"><ele>60.219727</ele><time>2007-07-26T17:05:11Z</time></trkpt>
<trkpt lat="48.03938982" lon="0.41491410"><ele>60.700317</ele><time>2007-07-26T17:05:16Z</time></trkpt>
<trkpt lat="48.03934054" lon="0.41510998"><ele>60.219727</ele><time>2007-07-26T17:05:19Z</time></trkpt>
<trkpt lat="48.03924783" lon="0.41543956"><ele>61.18103</ele><time>2007-07-26T17:05:24Z</time></trkpt>
<trkpt lat="48.03913853" lon="0.41566109"><ele>60.700317</ele><time>2007-07-26T17:05:28Z</time></trkpt>
<trkpt lat="48.03907475" lon="0.41576025"><ele>61.18103</ele><time>2007-07-26T17:05:30Z</time></trkpt>
<trkpt lat="48.03890484" lon="0.41592512"><ele>62.142334</ele><time>2007-07-26T17:05:35Z</time></trkpt>
<trkpt lat="48.03877350" lon="0.41606334"><ele>61.18103</ele><time>2007-07-26T17:05:45Z</time></trkpt>
<trkpt lat="48.03881943" lon="0.41615588"><ele>61.661743</ele><time>2007-07-26T17:05:48Z</time></trkpt>
<trkpt lat="48.03905069" lon="0.41640323"><ele>61.661743</ele><time>2007-07-26T17:05:55Z</time></trkpt>
<trkpt lat="48.03936442" lon="0.41672635"><ele>61.661743</ele><time>2007-07-26T17:06:03Z</time></trkpt>
<trkpt lat="48.03971169" lon="0.41706649"><ele>62.142334</ele><time>2007-07-26T17:06:11Z</time></trkpt>
<trkpt lat="48.03978746" lon="0.41714486"><ele>62.142334</ele><time>2007-07-26T17:06:13Z</time></trkpt>
<trkpt lat="48.03976365" lon="0.41728157"><ele>61.18103</ele><time>2007-07-26T17:06:17Z</time></trkpt>
<trkpt lat="48.03965469" lon="0.41727117"><ele>60.700317</ele><time>2007-07-26T17:06:20Z</time></trkpt>
<trkpt lat="48.03922017" lon="0.41711384"><ele>62.142334</ele><time>2007-07-26T17:06:31Z</time></trkpt>
<trkpt lat="48.03902412" lon="0.41700957"><ele>61.661743</ele><time>2007-07-26T17:06:37Z</time></trkpt>
<trkpt lat="48.03897282" lon="0.41702273"><ele>61.661743</ele><time>2007-07-26T17:06:43Z</time></trkpt>
<trkpt lat="48.03888674" lon="0.41699574"><ele>62.622925</ele><time>2007-07-26T17:06:46Z</time></trkpt>
<trkpt lat="48.03859413" lon="0.41682676"><ele>62.142334</ele><time>2007-07-26T17:06:54Z</time></trkpt>
<trkpt lat="48.03828098" lon="0.41672258"><ele>63.103638</ele><time>2007-07-26T17:07:02Z</time></trkpt>
<trkpt lat="48.03808308" lon="0.41665267"><ele>63.103638</ele><time>2007-07-26T17:07:07Z</time></trkpt>
<trkpt lat="48.03779684" lon="0.41658419"><ele>63.103638</ele><time>2007-07-26T17:07:14Z</time></trkpt>
<trkpt lat="48.03741815" lon="0.41657053"><ele>64.065063</ele><time>2007-07-26T17:07:23Z</time></trkpt>
<trkpt lat="48.03737607" lon="0.41657564"><ele>63.584351</ele><time>2007-07-26T17:07:24Z</time></trkpt>
<trkpt lat="48.03718974" lon="0.41666114"><ele>64.065063</ele><time>2007-07-26T17:07:29Z</time></trkpt>
<trkpt lat="48.03683703" lon="0.41656969"><ele>65.50708</ele><time>2007-07-26T17:07:37Z</time></trkpt>
<trkpt lat="48.03659848" lon="0.41660464"><ele>65.026367</ele><time>2007-07-26T17:07:42Z</time></trkpt>
<trkpt lat="48.03631458" lon="0.41677404"><ele>65.026367</ele><time>2007-07-26T17:07:48Z</time></trkpt>
<trkpt lat="48.03618869" lon="0.41689809"><ele>65.987671</ele><time>2007-07-26T17:07:51Z</time></trkpt>
<trkpt lat="48.03596883" lon="0.41729003"><ele>65.987671</ele><time>2007-07-26T17:07:58Z</time></trkpt>
<trkpt lat="48.03585886" lon="0.41772514"><ele>66.468262</ele><time>2007-07-26T17:08:04Z</time></trkpt>
<trkpt lat="48.03584386" lon="0.41819813"><ele>66.468262</ele><time>2007-07-26T17:08:10Z</time></trkpt>
<trkpt lat="48.03594318" lon="0.41867757"><ele>66.468262</ele><time>2007-07-26T17:08:16Z</time></trkpt>
<trkpt lat="48.03614845" lon="0.41908720"><ele>65.987671</ele><time>2007-07-26T17:08:22Z</time></trkpt>
<trkpt lat="48.03640075" lon="0.41934402"><ele>65.50708</ele><time>2007-07-26T17:08:27Z</time></trkpt>
<trkpt lat="48.03671834" lon="0.41947737"><ele>64.545654</ele><time>2007-07-26T17:08:32Z</time></trkpt>
<trkpt lat="48.03699830" lon="0.41946053"><ele>64.065063</ele><time>2007-07-26T17:08:36Z</time></trkpt>
<trkpt lat="48.03740264" lon="0.41920186"><ele>62.622925</ele><time>2007-07-26T17:08:42Z</time></trkpt>
<trkpt lat="48.03746114" lon="0.41913397"><ele>62.622925</ele><time>2007-07-26T17:08:43Z</time></trkpt>
<trkpt lat="48.03764890" lon="0.41880498"><ele>63.103638</ele><time>2007-07-26T17:08:47Z</time></trkpt>
<trkpt lat="48.03771855" lon="0.41862208"><ele>62.622925</ele><time>2007-07-26T17:08:49Z</time></trkpt>
<trkpt lat="48.03779810" lon="0.41821187"><ele>63.103638</ele><time>2007-07-26T17:08:53Z</time></trkpt>
<trkpt lat="48.03776264" lon="0.41757577"><ele>64.065063</ele><time>2007-07-26T17:08:59Z</time></trkpt>
<trkpt lat="48.03763507" lon="0.41718459"><ele>63.584351</ele><time>2007-07-26T17:09:03Z</time></trkpt>
<trkpt lat="48.03754413" lon="0.41701335"><ele>63.584351</ele><time>2007-07-26T17:09:05Z</time></trkpt>
<trkpt lat="48.03738135" lon="0.41679977"><ele>64.545654</ele><time>2007-07-26T17:09:08Z</time></trkpt>
<trkpt lat="48.03705228" lon="0.41659693"><ele>65.50708</ele><time>2007-07-26T17:09:13Z</time></trkpt>
<trkpt lat="48.03691154" lon="0.41656324"><ele>66.468262</ele><time>2007-07-26T17:09:15Z</time></trkpt>
<trkpt lat="48.03676972" lon="0.41655963"><ele>65.50708</ele><time>2007-07-26T17:09:17Z</time></trkpt>
<trkpt lat="48.03641743" lon="0.41668989"><ele>66.468262</ele><time>2007-07-26T17:09:22Z</time></trkpt>
<trkpt lat="48.03622490" lon="0.41685962"><ele>65.50708</ele><time>2007-07-26T17:09:25Z</time></trkpt>
<trkpt lat="48.03599272" lon="0.41723446"><ele>66.948975</ele><time>2007-07-26T17:09:30Z</time></trkpt>
<trkpt lat="48.03580195" lon="0.41749598"><ele>65.987671</ele><time>2007-07-26T17:09:35Z</time></trkpt>
<trkpt lat="48.03552065" lon="0.41757552"><ele>63.584351</ele><time>2007-07-26T17:09:40Z</time></trkpt>
<trkpt lat="48.03533147" lon="0.41759572"><ele>63.584351</ele><time>2007-07-26T17:09:43Z</time></trkpt>
<trkpt lat="48.03520205" lon="0.41764677"><ele>65.026367</ele><time>2007-07-26T17:09:46Z</time></trkpt>
<trkpt lat="48.03523843" lon="0.41779445"><ele>65.50708</ele><time>2007-07-26T17:09:51Z</time></trkpt>
<trkpt lat="48.03531270" lon="0.41782228"><ele>65.987671</ele><time>2007-07-26T17:09:54Z</time></trkpt>
<trkpt lat="48.03540758" lon="0.41775523"><ele>65.987671</ele><time>2007-07-26T17:09:58Z</time></trkpt>
<trkpt lat="48.03546240" lon="0.41776914"><ele>66.468262</ele><time>2007-07-26T17:10:01Z</time></trkpt>
<trkpt lat="48.03546919" lon="0.41781189"><ele>66.948975</ele><time>2007-07-26T17:10:02Z</time></trkpt>
<trkpt lat="48.03553213" lon="0.41824926"><ele>67.429688</ele><time>2007-07-26T17:10:10Z</time></trkpt>
<trkpt lat="48.03560715" lon="0.41875326"><ele>67.910278</ele><time>2007-07-26T17:10:18Z</time></trkpt>
<trkpt lat="48.03567278" lon="0.41920898"><ele>67.910278</ele><time>2007-07-26T17:10:24Z</time></trkpt>
<trkpt lat="48.03577839" lon="0.42001625"><ele>68.390869</ele><time>2007-07-26T17:10:33Z</time></trkpt>
<trkpt lat="48.03579994" lon="0.42019235"><ele>68.390869</ele><time>2007-07-26T17:10:35Z</time></trkpt>
<trkpt lat="48.03573280" lon="0.42048295"><ele>67.910278</ele><time>2007-07-26T17:10:39Z</time></trkpt>
<trkpt lat="48.03557815" lon="0.42055344"><ele>68.390869</ele><time>2007-07-26T17:10:42Z</time></trkpt>
<trkpt lat="48.03507272" lon="0.42069686"><ele>68.871582</ele><time>2007-07-26T17:10:51Z</time></trkpt>
<trkpt lat="48.03456922" lon="0.42084044"><ele>69.352295</ele><time>2007-07-26T17:11:00Z</time></trkpt>
<trkpt lat="48.03424048" lon="0.42090800"><ele>69.352295</ele><time>2007-07-26T17:11:06Z</time></trkpt>
<trkpt lat="48.03369063" lon="0.42100883"><ele>69.832886</ele><time>2007-07-26T17:11:16Z</time></trkpt>
<trkpt lat="48.03329039" lon="0.42105937"><ele>70.794189</ele><time>2007-07-26T17:11:23Z</time></trkpt>
<trkpt lat="48.03296777" lon="0.42100933"><ele>71.755493</ele><time>2007-07-26T17:11:29Z</time></trkpt>
<trkpt lat="48.03291815" lon="0.42099056"><ele>71.274902</ele><time>2007-07-26T17:11:30Z</time></trkpt>
<trkpt lat="48.03252722" lon="0.42068948"><ele>71.755493</ele><time>2007-07-26T17:11:39Z</time></trkpt>
<trkpt lat="48.03243938" lon="0.42062796"><ele>72.236206</ele><time>2007-07-26T17:11:41Z</time></trkpt>
<trkpt lat="48.03204786" lon="0.42039058"><ele>73.197632</ele><time>2007-07-26T17:11:50Z</time></trkpt>
<trkpt lat="48.03167478" lon="0.42020048"><ele>73.678223</ele><time>2007-07-26T17:11:58Z</time></trkpt>
<trkpt lat="48.03125376" lon="0.42003376"><ele>76.081421</ele><time>2007-07-26T17:12:07Z</time></trkpt>
<trkpt lat="48.03092586" lon="0.41993972"><ele>78.004028</ele><time>2007-07-26T17:12:15Z</time></trkpt>
<trkpt lat="48.03076794" lon="0.41992606"><ele>77.523438</ele><time>2007-07-26T17:12:19Z</time></trkpt>
<trkpt lat="48.03051556" lon="0.41992094"><ele>79.446045</ele><time>2007-07-26T17:12:25Z</time></trkpt>
<trkpt lat="48.03031976" lon="0.41994869"><ele>79.926636</ele><time>2007-07-26T17:12:30Z</time></trkpt>
<trkpt lat="48.03012782" lon="0.41999873"><ele>80.888184</ele><time>2007-07-26T17:12:35Z</time></trkpt>
<trkpt lat="48.02993294" lon="0.42006352"><ele>81.849365</ele><time>2007-07-26T17:12:40Z</time></trkpt>
<trkpt lat="48.02975348" lon="0.42012798"><ele>82.810791</ele><time>2007-07-26T17:12:45Z</time></trkpt>
<trkpt lat="48.02953186" lon="0.42019696"><ele>84.252686</ele><time>2007-07-26T17:12:51Z</time></trkpt>
<trkpt lat="48.02929407" lon="0.42026217"><ele>84.733398</ele><time>2007-07-26T17:12:56Z</time></trkpt>
<trkpt lat="48.02906784" lon="0.42033157"><ele>85.69458</ele><time>2007-07-26T17:13:01Z</time></trkpt>
<trkpt lat="48.02884145" lon="0.42040634"><ele>86.656006</ele><time>2007-07-26T17:13:06Z</time></trkpt>
<trkpt lat="48.02849066" lon="0.42051774"><ele>87.617188</ele><time>2007-07-26T17:13:15Z</time></trkpt>
<trkpt lat="48.02809336" lon="0.42068068"><ele>88.578735</ele><time>2007-07-26T17:13:26Z</time></trkpt>
<trkpt lat="48.02773269" lon="0.42087288"><ele>90.981934</ele><time>2007-07-26T17:13:37Z</time></trkpt>
<trkpt lat="48.02753236" lon="0.42096089"><ele>91.462524</ele><time>2007-07-26T17:13:44Z</time></trkpt>
<trkpt lat="48.02732977" lon="0.42096290"><ele>92.904541</ele><time>2007-07-26T17:13:51Z</time></trkpt>
<trkpt lat="48.02711268" lon="0.42092778"><ele>93.865845</ele><time>2007-07-26T17:13:58Z</time></trkpt>
<trkpt lat="48.02691453" lon="0.42084874"><ele>96.269287</ele><time>2007-07-26T17:14:05Z</time></trkpt>
<trkpt lat="48.02673684" lon="0.42073307"><ele>96.749878</ele><time>2007-07-26T17:14:11Z</time></trkpt>
<trkpt lat="48.02660675" lon="0.42063382"><ele>98.191895</ele><time>2007-07-26T17:14:16Z</time></trkpt>
<trkpt lat="48.02643232" lon="0.42045135"><ele>100.114502</ele><time>2007-07-26T17:14:23Z</time></trkpt>
<trkpt lat="48.02628002" lon="0.42033048"><ele>101.556396</ele><time>2007-07-26T17:14:29Z</time></trkpt>
<trkpt lat="48.02614985" lon="0.42023594"><ele>102.5177</ele><time>2007-07-26T17:14:35Z</time></trkpt>
<trkpt lat="48.02604306" lon="0.42016402"><ele>103.479004</ele><time>2007-07-26T17:14:41Z</time></trkpt>
<trkpt lat="48.02594575" lon="0.42007945"><ele>104.921021</ele><time>2007-07-26T17:14:47Z</time></trkpt>
<trkpt lat="48.02589915" lon="0.42004005"><ele>105.882446</ele><time>2007-07-26T17:14:50Z</time></trkpt>
<trkpt lat="48.02580812" lon="0.41998733"><ele>106.843628</ele><time>2007-07-26T17:14:54Z</time></trkpt>
<trkpt lat="48.02561869" lon="0.41988029"><ele>107.805054</ele><time>2007-07-26T17:15:02Z</time></trkpt>
<trkpt lat="48.02541509" lon="0.41975984"><ele>109.727661</ele><time>2007-07-26T17:15:11Z</time></trkpt>
<trkpt lat="48.02531082" lon="0.41971743"><ele>110.688843</ele><time>2007-07-26T17:15:16Z</time></trkpt>
<trkpt lat="48.02519205" lon="0.41971374"><ele>112.130981</ele><time>2007-07-26T17:15:22Z</time></trkpt>
<trkpt lat="48.02511049" lon="0.41971114"><ele>113.092285</ele><time>2007-07-26T17:15:27Z</time></trkpt>
<trkpt lat="48.02497546" lon="0.41973135"><ele>115.495605</ele><time>2007-07-26T17:15:34Z</time></trkpt>
<trkpt lat="48.02495736" lon="0.41973126"><ele>115.976196</ele><time>2007-07-26T17:15:35Z</time></trkpt>
<trkpt lat="48.02492869" lon="0.41973017"><ele>116.456787</ele><time>2007-07-26T17:15:37Z</time></trkpt>
<trkpt lat="48.02480523" lon="0.41971416"><ele>117.418213</ele><time>2007-07-26T17:15:43Z</time></trkpt>
<trkpt lat="48.02466952" lon="0.41971768"><ele>118.860107</ele><time>2007-07-26T17:15:49Z</time></trkpt>
<trkpt lat="48.02451865" lon="0.41971785"><ele>120.302124</ele><time>2007-07-26T17:15:57Z</time></trkpt>
<trkpt lat="48.02439367" lon="0.41972145"><ele>120.782837</ele><time>2007-07-26T17:16:02Z</time></trkpt>
<trkpt lat="48.02423526" lon="0.41967326"><ele>122.705444</ele><time>2007-07-26T17:16:08Z</time></trkpt>
<trkpt lat="48.02398187" lon="0.41961224"><ele>124.147339</ele><time>2007-07-26T17:16:16Z</time></trkpt>
<trkpt lat="48.02360452" lon="0.41948047"><ele>124.628052</ele><time>2007-07-26T17:16:27Z</time></trkpt>
<trkpt lat="48.02340033" lon="0.41935634"><ele>125.589355</ele><time>2007-07-26T17:16:33Z</time></trkpt>
<trkpt lat="48.02309574" lon="0.41903255"><ele>125.589355</ele><time>2007-07-26T17:16:41Z</time></trkpt>
<trkpt lat="48.02279348" lon="0.41864036"><ele>124.628052</ele><time>2007-07-26T17:16:50Z</time></trkpt>
<trkpt lat="48.02272794" lon="0.41850926"><ele>123.666748</ele><time>2007-07-26T17:18:15Z</time></trkpt>
<trkpt lat="48.02272693" lon="0.41848646"><ele>123.666748</ele><time>2007-07-26T17:18:16Z</time></trkpt>
<trkpt lat="48.02271780" lon="0.41840876"><ele>124.147339</ele><time>2007-07-26T17:18:17Z</time></trkpt>
<trkpt lat="48.02267396" lon="0.41801406"><ele>123.666748</ele><time>2007-07-26T17:18:24Z</time></trkpt>
<trkpt lat="48.02266080" lon="0.41783142"><ele>125.108765</ele><time>2007-07-26T17:18:27Z</time></trkpt>
<trkpt lat="48.02259198" lon="0.41739757"><ele>124.147339</ele><time>2007-07-26T17:18:34Z</time></trkpt>
<trkpt lat="48.02249568" lon="0.41685258"><ele>124.628052</ele><time>2007-07-26T17:18:42Z</time></trkpt>
<trkpt lat="48.02248168" lon="0.41677974"><ele>124.147339</ele><time>2007-07-26T17:18:43Z</time></trkpt>
<trkpt lat="48.02246123" lon="0.41663004"><ele>123.666748</ele><time>2007-07-26T17:18:45Z</time></trkpt>
<trkpt lat="48.02232410" lon="0.41578456"><ele>123.666748</ele><time>2007-07-26T17:18:56Z</time></trkpt>
<trkpt lat="48.02222176" lon="0.41515432"><ele>124.147339</ele><time>2007-07-26T17:19:04Z</time></trkpt>
<trkpt lat="48.02207985" lon="0.41493723"><ele>125.108765</ele><time>2007-07-26T17:19:08Z</time></trkpt>
<trkpt lat="48.02202914" lon="0.41493044"><ele>125.108765</ele><time>2007-07-26T17:19:09Z</time></trkpt>
<trkpt lat="48.02155699" lon="0.41485216"><ele>125.108765</ele><time>2007-07-26T17:19:18Z</time></trkpt>
<trkpt lat="48.02139807" lon="0.41480589"><ele>125.589355</ele><time>2007-07-26T17:19:21Z</time></trkpt>
<trkpt lat="48.02117452" lon="0.41456608"><ele>125.108765</ele><time>2007-07-26T17:19:26Z</time></trkpt>
<trkpt lat="48.02112314" lon="0.41442032"><ele>124.628052</ele><time>2007-07-26T17:19:28Z</time></trkpt>
<trkpt lat="48.02093237" lon="0.41386544"><ele>123.666748</ele><time>2007-07-26T17:19:35Z</time></trkpt>
<trkpt lat="48.02084318" lon="0.41360845"><ele>122.705444</ele><time>2007-07-26T17:19:38Z</time></trkpt>
<trkpt lat="48.02066037" lon="0.41308324"><ele>121.26355</ele><time>2007-07-26T17:19:44Z</time></trkpt>
<trkpt lat="48.02057086" lon="0.41280102"><ele>120.302124</ele><time>2007-07-26T17:19:47Z</time></trkpt>
<trkpt lat="48.02054957" lon="0.41240958"><ele>119.34082</ele><time>2007-07-26T17:19:51Z</time></trkpt>
<trkpt lat="48.02057865" lon="0.41222359"><ele>119.34082</ele><time>2007-07-26T17:19:53Z</time></trkpt>
<trkpt lat="48.02071083" lon="0.41160987"><ele>119.34082</ele><time>2007-07-26T17:20:00Z</time></trkpt>
<trkpt lat="48.02077822" lon="0.41130703"><ele>119.821411</ele><time>2007-07-26T17:20:04Z</time></trkpt>
<trkpt lat="48.02081544" lon="0.41104275"><ele>118.379395</ele><time>2007-07-26T17:20:08Z</time></trkpt>
<trkpt lat="48.02070907" lon="0.41096027"><ele>118.860107</ele><time>2007-07-26T17:20:11Z</time></trkpt>
<trkpt lat="48.02066750" lon="0.41095356"><ele>118.860107</ele><time>2007-07-26T17:20:12Z</time></trkpt>
<trkpt lat="48.02047656" lon="0.41092666"><ele>117.418213</ele><time>2007-07-26T17:20:16Z</time></trkpt>
<trkpt lat="48.02012469" lon="0.41098877"><ele>117.418213</ele><time>2007-07-26T17:20:23Z</time></trkpt>
<trkpt lat="48.01974197" lon="0.41091803"><ele>115.495605</ele><time>2007-07-26T17:20:30Z</time></trkpt>
<trkpt lat="48.01930284" lon="0.41089833"><ele>113.572998</ele><time>2007-07-26T17:20:37Z</time></trkpt>
<trkpt lat="48.01923889" lon="0.41091333"><ele>114.053589</ele><time>2007-07-26T17:20:38Z</time></trkpt>
<trkpt lat="48.01884703" lon="0.41108164"><ele>111.650269</ele><time>2007-07-26T17:20:44Z</time></trkpt>
<trkpt lat="48.01856297" lon="0.41120930"><ele>109.246948</ele><time>2007-07-26T17:20:48Z</time></trkpt>
<trkpt lat="48.01832945" lon="0.41127434"><ele>107.324341</ele><time>2007-07-26T17:20:51Z</time></trkpt>
<trkpt lat="48.01785319" lon="0.41157005"><ele>105.401733</ele><time>2007-07-26T17:20:58Z</time></trkpt>
<trkpt lat="48.01774439" lon="0.41165253"><ele>103.959717</ele><time>2007-07-26T17:21:01Z</time></trkpt>
<trkpt lat="48.01768773" lon="0.41157785"><ele>103.959717</ele><time>2007-07-26T17:21:05Z</time></trkpt>
<trkpt lat="48.01760660" lon="0.41119278"><ele>104.44043</ele><time>2007-07-26T17:21:12Z</time></trkpt>
<trkpt lat="48.01743996" lon="0.41071963"><ele>105.401733</ele><time>2007-07-26T17:21:20Z</time></trkpt>
<trkpt lat="48.01722262" lon="0.41031386"><ele>105.882446</ele><time>2007-07-26T17:21:27Z</time></trkpt>
<trkpt lat="48.01718792" lon="0.41025569"><ele>105.401733</ele><time>2007-07-26T17:21:28Z</time></trkpt>
<trkpt lat="48.01684057" lon="0.40987473"><ele>105.401733</ele><time>2007-07-26T17:21:36Z</time></trkpt>
<trkpt lat="48.01639357" lon="0.40956284"><ele>105.401733</ele><time>2007-07-26T17:21:45Z</time></trkpt>
<trkpt lat="48.01616197" lon="0.40925489"><ele>106.363037</ele><time>2007-07-26T17:21:51Z</time></trkpt>
<trkpt lat="48.01601135" lon="0.40888240"><ele>108.285645</ele><time>2007-07-26T17:21:57Z</time></trkpt>
<trkpt lat="48.01591043" lon="0.40833296"><ele>109.727661</ele><time>2007-07-26T17:22:05Z</time></trkpt>
<trkpt lat="48.01586752" lon="0.40804613"><ele>111.169556</ele><time>2007-07-26T17:22:09Z</time></trkpt>
<trkpt lat="48.01580809" lon="0.40757088"><ele>113.572998</ele><time>2007-07-26T17:22:16Z</time></trkpt>
<trkpt lat="48.01580859" lon="0.40750299"><ele>114.053589</ele><time>2007-07-26T17:22:17Z</time></trkpt>
<trkpt lat="48.01583265" lon="0.40724147"><ele>115.014893</ele><time>2007-07-26T17:22:21Z</time></trkpt>
<trkpt lat="48.01584874" lon="0.40704450"><ele>115.014893</ele><time>2007-07-26T17:22:24Z</time></trkpt>
<trkpt lat="48.01579854" lon="0.40670788"><ele>114.053589</ele><time>2007-07-26T17:22:29Z</time></trkpt>
<trkpt lat="48.01576459" lon="0.40657159"><ele>114.053589</ele><time>2007-07-26T17:22:31Z</time></trkpt>
<trkpt lat="48.01582234" lon="0.40643287"><ele>112.611572</ele><time>2007-07-26T17:22:35Z</time></trkpt>
<trkpt lat="48.01585469" lon="0.40642264"><ele>112.611572</ele><time>2007-07-26T17:22:36Z</time></trkpt>
<trkpt lat="48.01609827" lon="0.40640973"><ele>112.130981</ele><time>2007-07-26T17:22:42Z</time></trkpt>
<trkpt lat="48.01623783" lon="0.40654728"><ele>112.130981</ele><time>2007-07-26T17:22:46Z</time></trkpt>
<trkpt lat="48.01625786" lon="0.40660872"><ele>112.611572</ele><time>2007-07-26T17:22:47Z</time></trkpt>
<trkpt lat="48.01640606" lon="0.40688164"><ele>114.053589</ele><time>2007-07-26T17:22:52Z</time></trkpt>
<trkpt lat="48.01664368" lon="0.40709462"><ele>113.572998</ele><time>2007-07-26T17:22:58Z</time></trkpt>
<trkpt lat="48.01684166" lon="0.40724868"><ele>114.53418</ele><time>2007-07-26T17:23:03Z</time></trkpt>
<trkpt lat="48.01708574" lon="0.40735882"><ele>113.572998</ele><time>2007-07-26T17:23:08Z</time></trkpt>
<trkpt lat="48.01738489" lon="0.40762813"><ele>114.53418</ele><time>2007-07-26T17:23:15Z</time></trkpt>
<trkpt lat="48.01747098" lon="0.40771605"><ele>113.572998</ele><time>2007-07-26T17:23:17Z</time></trkpt>
<trkpt lat="48.01759268" lon="0.40786173"><ele>113.572998</ele><time>2007-07-26T17:23:20Z</time></trkpt>
<trkpt lat="48.01772805" lon="0.40805284"><ele>114.053589</ele><time>2007-07-26T17:23:24Z</time></trkpt>
<trkpt lat="48.01793726" lon="0.40815049"><ele>114.053589</ele><time>2007-07-26T17:23:29Z</time></trkpt>
<trkpt lat="48.01802552" lon="0.40818712"><ele>113.572998</ele><time>2007-07-26T17:23:31Z</time></trkpt>
<trkpt lat="48.01829089" lon="0.40838392"><ele>112.611572</ele><time>2007-07-26T17:23:37Z</time></trkpt>
<trkpt lat="48.01833347" lon="0.40842634"><ele>112.130981</ele><time>2007-07-26T17:23:38Z</time></trkpt>
<trkpt lat="48.01841143" lon="0.40852156"><ele>112.130981</ele><time>2007-07-26T17:23:40Z</time></trkpt>
<trkpt lat="48.01852902" lon="0.40867520"><ele>111.650269</ele><time>2007-07-26T17:23:43Z</time></trkpt>
<trkpt lat="48.01872876" lon="0.40880218"><ele>110.208252</ele><time>2007-07-26T17:23:47Z</time></trkpt>
<trkpt lat="48.01910855" lon="0.40888499"><ele>109.727661</ele><time>2007-07-26T17:23:53Z</time></trkpt>
<trkpt lat="48.01917778" lon="0.40889430"><ele>108.766235</ele><time>2007-07-26T17:23:54Z</time></trkpt>
<trkpt lat="48.01942237" lon="0.40891039"><ele>107.324341</ele><time>2007-07-26T17:23:58Z</time></trkpt>
<trkpt lat="48.01968589" lon="0.40890293"><ele>105.401733</ele><time>2007-07-26T17:24:02Z</time></trkpt>
<trkpt lat="48.01990693" lon="0.40887309"><ele>104.44043</ele><time>2007-07-26T17:24:05Z</time></trkpt>
<trkpt lat="48.02026483" lon="0.40889078"><ele>103.959717</ele><time>2007-07-26T17:24:10Z</time></trkpt>
<trkpt lat="48.02039006" lon="0.40892129"><ele>103.959717</ele><time>2007-07-26T17:24:12Z</time></trkpt>
<trkpt lat="48.02051143" lon="0.40896848"><ele>104.44043</ele><time>2007-07-26T17:24:14Z</time></trkpt>
<trkpt lat="48.02088015" lon="0.40914215"><ele>103.959717</ele><time>2007-07-26T17:24:20Z</time></trkpt>
<trkpt lat="48.02118324" lon="0.40922907"><ele>103.479004</ele><time>2007-07-26T17:24:25Z</time></trkpt>
<trkpt lat="48.02133068" lon="0.40927492"><ele>104.44043</ele><time>2007-07-26T17:24:28Z</time></trkpt>
<trkpt lat="48.02135289" lon="0.40940920"><ele>104.921021</ele><time>2007-07-26T17:24:32Z</time></trkpt>
<trkpt lat="48.02124149" lon="0.40973006"><ele>106.843628</ele><time>2007-07-26T17:24:39Z</time></trkpt>
<trkpt lat="48.02118676" lon="0.40992033"><ele>107.805054</ele><time>2007-07-26T17:24:43Z</time></trkpt>
<trkpt lat="48.02113538" lon="0.41010926"><ele>109.727661</ele><time>2007-07-26T17:24:47Z</time></trkpt>
<trkpt lat="48.02108886" lon="0.41024555"><ele>110.208252</ele><time>2007-07-26T17:24:50Z</time></trkpt>
<trkpt lat="48.02106153" lon="0.41033884"><ele>111.169556</ele><time>2007-07-26T17:24:52Z</time></trkpt>
<trkpt lat="48.02099439" lon="0.41057596"><ele>113.572998</ele><time>2007-07-26T17:24:57Z</time></trkpt>
<trkpt lat="48.02090378" lon="0.41086882"><ele>116.456787</ele><time>2007-07-26T17:25:03Z</time></trkpt>
<trkpt lat="48.02084318" lon="0.41113453"><ele>117.898804</ele><time>2007-07-26T17:25:08Z</time></trkpt>
<trkpt lat="48.02079373" lon="0.41141222"><ele>118.860107</ele><time>2007-07-26T17:25:13Z</time></trkpt>
<trkpt lat="48.02072517" lon="0.41174658"><ele>120.782837</ele><time>2007-07-26T17:25:18Z</time></trkpt>
<trkpt lat="48.02069223" lon="0.41187398"><ele>120.302124</ele><time>2007-07-26T17:25:20Z</time></trkpt>
<trkpt lat="48.02063104" lon="0.41222787"><ele>119.821411</ele><time>2007-07-26T17:25:25Z</time></trkpt>
<trkpt lat="48.02064353" lon="0.41247865"><ele>119.821411</ele><time>2007-07-26T17:25:28Z</time></trkpt>
<trkpt lat="48.02064403" lon="0.41256448"><ele>120.782837</ele><time>2007-07-26T17:25:29Z</time></trkpt>
<trkpt lat="48.02077043" lon="0.41318466"><ele>120.782837</ele><time>2007-07-26T17:25:37Z</time></trkpt>
<trkpt lat="48.02083924" lon="0.41337216"><ele>121.744141</ele><time>2007-07-26T17:25:40Z</time></trkpt>
<trkpt lat="48.02100839" lon="0.41392604"><ele>122.705444</ele><time>2007-07-26T17:25:48Z</time></trkpt>
<trkpt lat="48.02107394" lon="0.41415428"><ele>123.186157</ele><time>2007-07-26T17:25:51Z</time></trkpt>
<trkpt lat="48.02121006" lon="0.41459885"><ele>124.147339</ele><time>2007-07-26T17:25:57Z</time></trkpt>
<trkpt lat="48.02137644" lon="0.41480245"><ele>125.589355</ele><time>2007-07-26T17:26:01Z</time></trkpt>
<trkpt lat="48.02143143" lon="0.41482206"><ele>125.589355</ele><time>2007-07-26T17:26:02Z</time></trkpt>
<trkpt lat="48.02186536" lon="0.41491544"><ele>125.589355</ele><time>2007-07-26T17:26:10Z</time></trkpt>
<trkpt lat="48.02209175" lon="0.41495467"><ele>124.628052</ele><time>2007-07-26T17:26:14Z</time></trkpt>
<trkpt lat="48.02224464" lon="0.41517377"><ele>124.628052</ele><time>2007-07-26T17:26:18Z</time></trkpt>
<trkpt lat="48.02233986" lon="0.41576587"><ele>125.108765</ele><time>2007-07-26T17:26:25Z</time></trkpt>
<trkpt lat="48.02252769" lon="0.41688988"><ele>124.147339</ele><time>2007-07-26T17:26:38Z</time></trkpt>
<trkpt lat="48.02269475" lon="0.41792404"><ele>125.108765</ele><time>2007-07-26T17:26:50Z</time></trkpt>
<trkpt lat="48.02273909" lon="0.41826585"><ele>125.108765</ele><time>2007-07-26T17:26:54Z</time></trkpt>
<trkpt lat="48.02267723" lon="0.41849107"><ele>127.031372</ele><time>2007-07-26T17:26:58Z</time></trkpt>
<trkpt lat="48.02263783" lon="0.41848177"><ele>125.589355</ele><time>2007-07-26T17:26:59Z</time></trkpt>
<trkpt lat="48.02252677" lon="0.41839108"><ele>125.108765</ele><time>2007-07-26T17:27:02Z</time></trkpt>
<trkpt lat="48.02244069" lon="0.41834556"><ele>126.069946</ele><time>2007-07-26T17:27:04Z</time></trkpt>
<trkpt lat="48.02206367" lon="0.41826619"><ele>125.589355</ele><time>2007-07-26T17:27:11Z</time></trkpt>
<trkpt lat="48.02160543" lon="0.41826745"><ele>123.186157</ele><time>2007-07-26T17:27:18Z</time></trkpt>
<trkpt lat="48.02118240" lon="0.41825202"><ele>120.782837</ele><time>2007-07-26T17:27:24Z</time></trkpt>
<trkpt lat="48.02111224" lon="0.41825286"><ele>121.26355</ele><time>2007-07-26T17:27:25Z</time></trkpt>
<trkpt lat="48.02081452" lon="0.41824155"><ele>117.898804</ele><time>2007-07-26T17:27:29Z</time></trkpt>
<trkpt lat="48.02056457" lon="0.41823073"><ele>116.456787</ele><time>2007-07-26T17:27:32Z</time></trkpt>
<trkpt lat="48.02003433" lon="0.41828396"><ele>113.092285</ele><time>2007-07-26T17:27:38Z</time></trkpt>
<trkpt lat="48.01975035" lon="0.41828882"><ele>111.650269</ele><time>2007-07-26T17:27:41Z</time></trkpt>
<trkpt lat="48.01965253" lon="0.41828195"><ele>110.208252</ele><time>2007-07-26T17:27:42Z</time></trkpt>
<trkpt lat="48.01908575" lon="0.41837599"><ele>106.843628</ele><time>2007-07-26T17:27:48Z</time></trkpt>
<trkpt lat="48.01890202" lon="0.41846023"><ele>105.401733</ele><time>2007-07-26T17:27:51Z</time></trkpt>
<trkpt lat="48.01884737" lon="0.41850298"><ele>105.401733</ele><time>2007-07-26T17:27:53Z</time></trkpt>
<trkpt lat="48.01883572" lon="0.41864824"><ele>103.959717</ele><time>2007-07-26T17:27:57Z</time></trkpt>
<trkpt lat="48.01890462" lon="0.41895434"><ele>104.921021</ele><time>2007-07-26T17:28:03Z</time></trkpt>
<trkpt lat="48.01898332" lon="0.41932289"><ele>107.324341</ele><time>2007-07-26T17:28:08Z</time></trkpt>
<trkpt lat="48.01906337" lon="0.41970159"><ele>107.324341</ele><time>2007-07-26T17:28:13Z</time></trkpt>
<trkpt lat="48.01908198" lon="0.41977753"><ele>108.285645</ele><time>2007-07-26T17:28:14Z</time></trkpt>
<trkpt lat="48.01916596" lon="0.42015589"><ele>110.208252</ele><time>2007-07-26T17:28:19Z</time></trkpt>
<trkpt lat="48.01923193" lon="0.42045638"><ele>112.130981</ele><time>2007-07-26T17:28:23Z</time></trkpt>
<trkpt lat="48.01937258" lon="0.42118762"><ele>114.053589</ele><time>2007-07-26T17:28:32Z</time></trkpt>
<trkpt lat="48.01938926" lon="0.42136087"><ele>114.53418</ele><time>2007-07-26T17:28:34Z</time></trkpt>
<trkpt lat="48.01931592" lon="0.42177234"><ele>116.9375</ele><time>2007-07-26T17:28:39Z</time></trkpt>
<trkpt lat="48.01925356" lon="0.42191684"><ele>117.418213</ele><time>2007-07-26T17:28:41Z</time></trkpt>
<trkpt lat="48.01910545" lon="0.42243870"><ele>116.456787</ele><time>2007-07-26T17:28:47Z</time></trkpt>
<trkpt lat="48.01911157" lon="0.42315745"><ele>112.130981</ele><time>2007-07-26T17:28:53Z</time></trkpt>
<trkpt lat="48.01913696" lon="0.42400452"><ele>110.208252</ele><time>2007-07-26T17:28:59Z</time></trkpt>
<trkpt lat="48.01915507" lon="0.42462478"><ele>106.363037</ele><time>2007-07-26T17:29:03Z</time></trkpt>
<trkpt lat="48.01916102" lon="0.42478463"><ele>106.363037</ele><time>2007-07-26T17:29:04Z</time></trkpt>
<trkpt lat="48.01917200" lon="0.42544789"><ele>102.998291</ele><time>2007-07-26T17:29:08Z</time></trkpt>
<trkpt lat="48.01918197" lon="0.42579305"><ele>101.075684</ele><time>2007-07-26T17:29:10Z</time></trkpt>
<trkpt lat="48.01918784" lon="0.42596907"><ele>100.114502</ele><time>2007-07-26T17:29:11Z</time></trkpt>
<trkpt lat="48.01919354" lon="0.42614560"><ele>100.595093</ele><time>2007-07-26T17:29:12Z</time></trkpt>
<trkpt lat="48.01920326" lon="0.42644642"><ele>99.633789</ele><time>2007-07-26T17:29:14Z</time></trkpt>
<trkpt lat="48.01915339" lon="0.42664985"><ele>97.711182</ele><time>2007-07-26T17:29:17Z</time></trkpt>
<trkpt lat="48.01910846" lon="0.42666502"><ele>97.711182</ele><time>2007-07-26T17:29:18Z</time></trkpt>
<trkpt lat="48.01872776" lon="0.42672688"><ele>96.269287</ele><time>2007-07-26T17:29:24Z</time></trkpt>
<trkpt lat="48.01801823" lon="0.42687549"><ele>93.865845</ele><time>2007-07-26T17:29:34Z</time></trkpt>
<trkpt lat="48.01755002" lon="0.42701547"><ele>92.904541</ele><time>2007-07-26T17:29:41Z</time></trkpt>
<trkpt lat="48.01713268" lon="0.42714824"><ele>91.943237</ele><time>2007-07-26T17:29:48Z</time></trkpt>
<trkpt lat="48.01698189" lon="0.42721974"><ele>90.981934</ele><time>2007-07-26T17:29:57Z</time></trkpt>
<trkpt lat="48.01696848" lon="0.42727556"><ele>91.462524</ele><time>2007-07-26T17:30:02Z</time></trkpt>
<trkpt lat="48.01693135" lon="0.42737975"><ele>90.02063</ele><time>2007-07-26T17:30:06Z</time></trkpt>
<trkpt lat="48.01676807" lon="0.42739090"><ele>90.501343</ele><time>2007-07-26T17:30:12Z</time></trkpt>
<trkpt lat="48.01660529" lon="0.42731806"><ele>90.02063</ele><time>2007-07-26T17:30:18Z</time></trkpt>
<trkpt lat="48.01658803" lon="0.42731663"><ele>90.02063</ele><time>2007-07-26T17:30:23Z</time></trkpt>
<trkpt lat="48.01657688" lon="0.42731236"><ele>89.059326</ele><time>2007-07-26T17:30:24Z</time></trkpt>
<trkpt lat="48.01655643" lon="0.42727749"><ele>89.539917</ele><time>2007-07-26T17:30:29Z</time></trkpt>
<trkpt lat="48.01654905" lon="0.42725645"><ele>89.539917</ele><time>2007-07-26T17:30:31Z</time></trkpt>
<trkpt lat="48.01646548" lon="0.42723147"><ele>90.02063</ele><time>2007-07-26T17:30:37Z</time></trkpt>
<trkpt lat="48.01634839" lon="0.42726718"><ele>89.059326</ele><time>2007-07-26T17:30:43Z</time></trkpt>
<trkpt lat="48.01611814" lon="0.42733574"><ele>88.578735</ele><time>2007-07-26T17:30:49Z</time></trkpt>
<trkpt lat="48.01577968" lon="0.42741386"><ele>87.617188</ele><time>2007-07-26T17:30:56Z</time></trkpt>
<trkpt lat="48.01546846" lon="0.42742560"><ele>87.136597</ele><time>2007-07-26T17:31:02Z</time></trkpt>
<trkpt lat="48.01513595" lon="0.42748259"><ele>86.175293</ele><time>2007-07-26T17:31:08Z</time></trkpt>
<trkpt lat="48.01498557" lon="0.42752299"><ele>84.733398</ele><time>2007-07-26T17:31:11Z</time></trkpt>
<trkpt lat="48.01478206" lon="0.42754604"><ele>85.213989</ele><time>2007-07-26T17:31:15Z</time></trkpt>
<trkpt lat="48.01463169" lon="0.42751277"><ele>84.252686</ele><time>2007-07-26T17:31:18Z</time></trkpt>
<trkpt lat="48.01441602" lon="0.42743783"><ele>83.771973</ele><time>2007-07-26T17:31:22Z</time></trkpt>
<trkpt lat="48.01410137" lon="0.42742082"><ele>83.771973</ele><time>2007-07-26T17:31:28Z</time></trkpt>
<trkpt lat="48.01386106" lon="0.42750447"><ele>83.771973</ele><time>2007-07-26T17:31:34Z</time></trkpt>
<trkpt lat="48.01368940" lon="0.42758695"><ele>83.771973</ele><time>2007-07-26T17:31:39Z</time></trkpt>
<trkpt lat="48.01369367" lon="0.42773724"><ele>84.252686</ele><time>2007-07-26T17:31:43Z</time></trkpt>
<trkpt lat="48.01373365" lon="0.42788593"><ele>83.771973</ele><time>2007-07-26T17:31:46Z</time></trkpt>
<trkpt lat="48.01367397" lon="0.42816362"><ele>85.69458</ele><time>2007-07-26T17:31:52Z</time></trkpt>
<trkpt lat="48.01366375" lon="0.42821048"><ele>85.213989</ele><time>2007-07-26T17:31:53Z</time></trkpt>
<trkpt lat="48.01369074" lon="0.42838222"><ele>85.213989</ele><time>2007-07-26T17:31:56Z</time></trkpt>
<trkpt lat="48.01375327" lon="0.42869998"><ele>86.175293</ele><time>2007-07-26T17:32:01Z</time></trkpt>
<trkpt lat="48.01376902" lon="0.42875924"><ele>85.69458</ele><time>2007-07-26T17:32:02Z</time></trkpt>
<trkpt lat="48.01379333" lon="0.42888908"><ele>86.175293</ele><time>2007-07-26T17:32:04Z</time></trkpt>
<trkpt lat="48.01383767" lon="0.42920197"><ele>85.69458</ele><time>2007-07-26T17:32:09Z</time></trkpt>
<trkpt lat="48.01388595" lon="0.42944756"><ele>86.175293</ele><time>2007-07-26T17:32:13Z</time></trkpt>
<trkpt lat="48.01396742" lon="0.42985434"><ele>86.175293</ele><time>2007-07-26T17:32:20Z</time></trkpt>
<trkpt lat="48.01400095" lon="0.42996909"><ele>86.656006</ele><time>2007-07-26T17:32:22Z</time></trkpt>
<trkpt lat="48.01404060" lon="0.43021694"><ele>87.136597</ele><time>2007-07-26T17:32:26Z</time></trkpt>
<trkpt lat="48.01408293" lon="0.43040486"><ele>87.136597</ele><time>2007-07-26T17:32:29Z</time></trkpt>
<trkpt lat="48.01412509" lon="0.43070778"><ele>87.617188</ele><time>2007-07-26T17:32:34Z</time></trkpt>
<trkpt lat="48.01414906" lon="0.43096083"><ele>88.098022</ele><time>2007-07-26T17:32:39Z</time></trkpt>
<trkpt lat="48.01421377" lon="0.43131405"><ele>88.098022</ele><time>2007-07-26T17:32:45Z</time></trkpt>
<trkpt lat="48.01427320" lon="0.43172635"><ele>89.059326</ele><time>2007-07-26T17:32:52Z</time></trkpt>
<trkpt lat="48.01431066" lon="0.43206037"><ele>89.539917</ele><time>2007-07-26T17:32:58Z</time></trkpt>
<trkpt lat="48.01433966" lon="0.43237008"><ele>90.02063</ele><time>2007-07-26T17:33:03Z</time></trkpt>
<trkpt lat="48.01440429" lon="0.43285774"><ele>90.981934</ele><time>2007-07-26T17:33:11Z</time></trkpt>
<trkpt lat="48.01448920" lon="0.43350248"><ele>91.462524</ele><time>2007-07-26T17:33:22Z</time></trkpt>
<trkpt lat="48.01455424" lon="0.43402023"><ele>92.42395</ele><time>2007-07-26T17:33:32Z</time></trkpt>
<trkpt lat="48.01456832" lon="0.43405183"><ele>92.42395</ele><time>2007-07-26T17:33:33Z</time></trkpt>
<trkpt lat="48.01468735" lon="0.43399776"><ele>92.42395</ele><time>2007-07-26T17:33:38Z</time></trkpt>
<trkpt lat="48.01479874" lon="0.43386290"><ele>91.462524</ele><time>2007-07-26T17:33:42Z</time></trkpt>
<trkpt lat="48.01503964" lon="0.43358018"><ele>91.943237</ele><time>2007-07-26T17:33:49Z</time></trkpt>
<trkpt lat="48.01534357" lon="0.43323593"><ele>90.981934</ele><time>2007-07-26T17:33:57Z</time></trkpt>
<trkpt lat="48.01558932" lon="0.43300744"><ele>89.059326</ele><time>2007-07-26T17:34:03Z</time></trkpt>
<trkpt lat="48.01563039" lon="0.43297039"><ele>89.059326</ele><time>2007-07-26T17:34:04Z</time></trkpt>
<trkpt lat="48.01579108" lon="0.43281214"><ele>89.539917</ele><time>2007-07-26T17:34:08Z</time></trkpt>
<trkpt lat="48.01604798" lon="0.43256295"><ele>88.098022</ele><time>2007-07-26T17:34:14Z</time></trkpt>
<trkpt lat="48.01642299" lon="0.43228098"><ele>88.578735</ele><time>2007-07-26T17:34:22Z</time></trkpt>
<trkpt lat="48.01678483" lon="0.43197672"><ele>89.539917</ele><time>2007-07-26T17:34:30Z</time></trkpt>
<trkpt lat="48.01691886" lon="0.43184680"><ele>90.02063</ele><time>2007-07-26T17:34:33Z</time></trkpt>
<trkpt lat="48.01721013" lon="0.43157439"><ele>90.981934</ele><time>2007-07-26T17:34:40Z</time></trkpt>
<trkpt lat="48.01725263" lon="0.43153315"><ele>90.501343</ele><time>2007-07-26T17:34:41Z</time></trkpt>
<trkpt lat="48.01757206" lon="0.43130072"><ele>90.981934</ele><time>2007-07-26T17:34:49Z</time></trkpt>
<trkpt lat="48.01783416" lon="0.43109922"><ele>93.385132</ele><time>2007-07-26T17:34:56Z</time></trkpt>
<trkpt lat="48.01803592" lon="0.43097659"><ele>93.865845</ele><time>2007-07-26T17:35:02Z</time></trkpt>
<trkpt lat="48.01809987" lon="0.43093099"><ele>94.346558</ele><time>2007-07-26T17:35:05Z</time></trkpt>
<trkpt lat="48.01812736" lon="0.43076495"><ele>94.827148</ele><time>2007-07-26T17:35:09Z</time></trkpt>
<trkpt lat="48.01805955" lon="0.43016623"><ele>94.827148</ele><time>2007-07-26T17:35:18Z</time></trkpt>
<trkpt lat="48.01799317" lon="0.42965937"><ele>95.788452</ele><time>2007-07-26T17:35:25Z</time></trkpt>
<trkpt lat="48.01795579" lon="0.42929099"><ele>95.307739</ele><time>2007-07-26T17:35:30Z</time></trkpt>
<trkpt lat="48.01800348" lon="0.42875916"><ele>96.269287</ele><time>2007-07-26T17:35:37Z</time></trkpt>
<trkpt lat="48.01810582" lon="0.42849789"><ele>96.269287</ele><time>2007-07-26T17:35:41Z</time></trkpt>
<trkpt lat="48.01825267" lon="0.42827477"><ele>95.307739</ele><time>2007-07-26T17:35:45Z</time></trkpt>
<trkpt lat="48.01860589" lon="0.42779448"><ele>96.269287</ele><time>2007-07-26T17:35:54Z</time></trkpt>
<trkpt lat="48.01876573" lon="0.42758133"><ele>98.672485</ele><time>2007-07-26T17:35:58Z</time></trkpt>
<trkpt lat="48.01909924" lon="0.42711530"><ele>97.230469</ele><time>2007-07-26T17:36:07Z</time></trkpt>
<trkpt lat="48.01921265" lon="0.42679863"><ele>97.711182</ele><time>2007-07-26T17:36:12Z</time></trkpt>
<trkpt lat="48.01928717" lon="0.42652085"><ele>97.230469</ele><time>2007-07-26T17:36:17Z</time></trkpt>
<trkpt lat="48.01946805" lon="0.42643586"><ele>97.230469</ele><time>2007-07-26T17:36:21Z</time></trkpt>
<trkpt lat="48.01989963" lon="0.42608608"><ele>98.191895</ele><time>2007-07-26T17:36:31Z</time></trkpt>
<trkpt lat="48.02026190" lon="0.42583563"><ele>99.153076</ele><time>2007-07-26T17:36:39Z</time></trkpt>
<trkpt lat="48.02035854" lon="0.42579548"><ele>100.114502</ele><time>2007-07-26T17:36:41Z</time></trkpt>
<trkpt lat="48.02072232" lon="0.42569415"><ele>102.037109</ele><time>2007-07-26T17:36:49Z</time></trkpt>
<trkpt lat="48.02102130" lon="0.42569482"><ele>103.479004</ele><time>2007-07-26T17:36:56Z</time></trkpt>
<trkpt lat="48.02138960" lon="0.42585374"><ele>104.44043</ele><time>2007-07-26T17:37:05Z</time></trkpt>
<trkpt lat="48.02164768" lon="0.42610243"><ele>106.363037</ele><time>2007-07-26T17:37:12Z</time></trkpt>
<trkpt lat="48.02191188" lon="0.42646780"><ele>108.766235</ele><time>2007-07-26T17:37:20Z</time></trkpt>
<trkpt lat="48.02195169" lon="0.42650275"><ele>109.246948</ele><time>2007-07-26T17:37:21Z</time></trkpt>
<trkpt lat="48.02212017" lon="0.42658187"><ele>110.688843</ele><time>2007-07-26T17:37:25Z</time></trkpt>
<trkpt lat="48.02229325" lon="0.42660099"><ele>112.130981</ele><time>2007-07-26T17:37:29Z</time></trkpt>
<trkpt lat="48.02238730" lon="0.42659068"><ele>112.130981</ele><time>2007-07-26T17:37:31Z</time></trkpt>
<trkpt lat="48.02276943" lon="0.42638674"><ele>113.092285</ele><time>2007-07-26T17:37:39Z</time></trkpt>
<trkpt lat="48.02308459" lon="0.42611919"><ele>113.092285</ele><time>2007-07-26T17:37:46Z</time></trkpt>
<trkpt lat="48.02340327" lon="0.42581015"><ele>113.092285</ele><time>2007-07-26T17:37:54Z</time></trkpt>
<trkpt lat="48.02365984" lon="0.42577285"><ele>113.572998</ele><time>2007-07-26T17:38:00Z</time></trkpt>
<trkpt lat="48.02370267" lon="0.42579423"><ele>114.053589</ele><time>2007-07-26T17:38:01Z</time></trkpt>
<trkpt lat="48.02390928" lon="0.42604719"><ele>116.456787</ele><time>2007-07-26T17:38:08Z</time></trkpt>
<trkpt lat="48.02397760" lon="0.42636386"><ele>117.418213</ele><time>2007-07-26T17:38:14Z</time></trkpt>
<trkpt lat="48.02400249" lon="0.42652790"><ele>118.860107</ele><time>2007-07-26T17:38:17Z</time></trkpt>
<trkpt lat="48.02416686" lon="0.42655380"><ele>119.821411</ele><time>2007-07-26T17:38:22Z</time></trkpt>
<trkpt lat="48.02446685" lon="0.42651063"><ele>121.744141</ele><time>2007-07-26T17:38:31Z</time></trkpt>
<trkpt lat="48.02458696" lon="0.42648037"><ele>121.26355</ele><time>2007-07-26T17:38:37Z</time></trkpt>
<trkpt lat="48.02473155" lon="0.42647802"><ele>122.705444</ele><time>2007-07-26T17:38:42Z</time></trkpt>
<trkpt lat="48.02485015" lon="0.42645824"><ele>122.224731</ele><time>2007-07-26T17:38:46Z</time></trkpt>
<trkpt lat="48.02503447" lon="0.42642798"><ele>123.666748</ele><time>2007-07-26T17:38:51Z</time></trkpt>
<trkpt lat="48.02526346" lon="0.42636017"><ele>124.147339</ele><time>2007-07-26T17:38:57Z</time></trkpt>
<trkpt lat="48.02541560" lon="0.42631860"><ele>125.589355</ele><time>2007-07-26T17:39:01Z</time></trkpt>
<trkpt lat="48.02567577" lon="0.42629077"><ele>126.069946</ele><time>2007-07-26T17:39:07Z</time></trkpt>
<trkpt lat="48.02589135" lon="0.42626219"><ele>124.628052</ele><time>2007-07-26T17:39:12Z</time></trkpt>
<trkpt lat="48.02603988" lon="0.42624970"><ele>124.628052</ele><time>2007-07-26T17:39:15Z</time></trkpt>
<trkpt lat="48.02618883" lon="0.42623696"><ele>123.186157</ele><time>2007-07-26T17:39:18Z</time></trkpt>
<trkpt lat="48.02637935" lon="0.42624417"><ele>121.744141</ele><time>2007-07-26T17:39:21Z</time></trkpt>
<trkpt lat="48.02658085" lon="0.42627828"><ele>118.379395</ele><time>2007-07-26T17:39:24Z</time></trkpt>
<trkpt lat="48.02669543" lon="0.42629614"><ele>115.976196</ele><time>2007-07-26T17:39:26Z</time></trkpt>
<trkpt lat="48.02689383" lon="0.42629069"><ele>113.572998</ele><time>2007-07-26T17:39:29Z</time></trkpt>
<trkpt lat="48.02717613" lon="0.42623453"><ele>112.130981</ele><time>2007-07-26T17:39:33Z</time></trkpt>
<trkpt lat="48.02731846" lon="0.42617116"><ele>109.727661</ele><time>2007-07-26T17:39:35Z</time></trkpt>
<trkpt lat="48.02763999" lon="0.42597486"><ele>104.44043</ele><time>2007-07-26T17:39:40Z</time></trkpt>
<trkpt lat="48.02788306" lon="0.42559097"><ele>99.633789</ele><time>2007-07-26T17:39:45Z</time></trkpt>
<trkpt lat="48.02805313" lon="0.42530338"><ele>96.269287</ele><time>2007-07-26T17:39:49Z</time></trkpt>
<trkpt lat="48.02820099" lon="0.42509987"><ele>94.827148</ele><time>2007-07-26T17:39:52Z</time></trkpt>
<trkpt lat="48.02839997" lon="0.42482276"><ele>93.865845</ele><time>2007-07-26T17:39:56Z</time></trkpt>
<trkpt lat="48.02856459" lon="0.42462789"><ele>91.943237</ele><time>2007-07-26T17:39:59Z</time></trkpt>
<trkpt lat="48.02862134" lon="0.42456125"><ele>91.462524</ele><time>2007-07-26T17:40:00Z</time></trkpt>
<trkpt lat="48.02893206" lon="0.42427735"><ele>89.539917</ele><time>2007-07-26T17:40:05Z</time></trkpt>
<trkpt lat="48.02912618" lon="0.42409069"><ele>88.578735</ele><time>2007-07-26T17:40:08Z</time></trkpt>
<trkpt lat="48.02938719" lon="0.42381786"><ele>85.213989</ele><time>2007-07-26T17:40:12Z</time></trkpt>
<trkpt lat="48.02958375" lon="0.42357026"><ele>83.771973</ele><time>2007-07-26T17:40:15Z</time></trkpt>
<trkpt lat="48.02999974" lon="0.42316834"><ele>81.368774</ele><time>2007-07-26T17:40:21Z</time></trkpt>
<trkpt lat="48.03038732" lon="0.42278085"><ele>79.446045</ele><time>2007-07-26T17:40:27Z</time></trkpt>
<trkpt lat="48.03067097" lon="0.42244708"><ele>79.446045</ele><time>2007-07-26T17:40:31Z</time></trkpt>
<trkpt lat="48.03111403" lon="0.42203855"><ele>77.523438</ele><time>2007-07-26T17:40:38Z</time></trkpt>
<trkpt lat="48.03136029" lon="0.42182925"><ele>76.081421</ele><time>2007-07-26T17:40:42Z</time></trkpt>
<trkpt lat="48.03165634" lon="0.42160286"><ele>74.639526</ele><time>2007-07-26T17:40:47Z</time></trkpt>
<trkpt lat="48.03176522" lon="0.42151568"><ele>74.158813</ele><time>2007-07-26T17:40:49Z</time></trkpt>
<trkpt lat="48.03213470" lon="0.42133036"><ele>73.678223</ele><time>2007-07-26T17:40:55Z</time></trkpt>
<trkpt lat="48.03249587" lon="0.42119072"><ele>73.197632</ele><time>2007-07-26T17:41:00Z</time></trkpt>
<trkpt lat="48.03291698" lon="0.42108762"><ele>73.197632</ele><time>2007-07-26T17:41:06Z</time></trkpt>
<trkpt lat="48.03305319" lon="0.42105770"><ele>72.236206</ele><time>2007-07-26T17:41:08Z</time></trkpt>
<trkpt lat="48.03337765" lon="0.42104278"><ele>71.274902</ele><time>2007-07-26T17:41:13Z</time></trkpt>
<trkpt lat="48.03369792" lon="0.42101026"><ele>70.794189</ele><time>2007-07-26T17:41:18Z</time></trkpt>
<trkpt lat="48.03410428" lon="0.42090523"><ele>70.794189</ele><time>2007-07-26T17:41:24Z</time></trkpt>
<trkpt lat="48.03459453" lon="0.42079006"><ele>70.794189</ele><time>2007-07-26T17:41:31Z</time></trkpt>
<trkpt lat="48.03493769" lon="0.42069124"><ele>70.313477</ele><time>2007-07-26T17:41:36Z</time></trkpt>
<trkpt lat="48.03547505" lon="0.42052134"><ele>69.832886</ele><time>2007-07-26T17:41:44Z</time></trkpt>
<trkpt lat="48.03578124" lon="0.42041816"><ele>69.352295</ele><time>2007-07-26T17:41:50Z</time></trkpt>
<trkpt lat="48.03582885" lon="0.42042377"><ele>68.871582</ele><time>2007-07-26T17:42:34Z</time></trkpt>
<trkpt lat="48.03594436" lon="0.42041665"><ele>68.871582</ele><time>2007-07-26T17:42:38Z</time></trkpt>
<trkpt lat="48.03600445" lon="0.42039519"><ele>68.390869</ele><time>2007-07-26T17:42:40Z</time></trkpt>
<trkpt lat="48.03606003" lon="0.42036460"><ele>67.429688</ele><time>2007-07-26T17:42:45Z</time></trkpt>
<trkpt lat="48.03612834" lon="0.42036896"><ele>67.910278</ele><time>2007-07-26T17:42:48Z</time></trkpt>
<trkpt lat="48.03646068" lon="0.42024365"><ele>66.948975</ele><time>2007-07-26T17:42:56Z</time></trkpt>
<trkpt lat="48.03650619" lon="0.42022269"><ele>66.948975</ele><time>2007-07-26T17:42:57Z</time></trkpt>
<trkpt lat="48.03673259" lon="0.42014055"><ele>66.948975</ele><time>2007-07-26T17:43:02Z</time></trkpt>
<trkpt lat="48.03699947" lon="0.42000820"><ele>66.468262</ele><time>2007-07-26T17:43:08Z</time></trkpt>
<trkpt lat="48.03733500" lon="0.41987233"><ele>65.987671</ele><time>2007-07-26T17:43:15Z</time></trkpt>
<trkpt lat="48.03768704" lon="0.41977686"><ele>65.026367</ele><time>2007-07-26T17:43:22Z</time></trkpt>
<trkpt lat="48.03777647" lon="0.41976345"><ele>65.026367</ele><time>2007-07-26T17:43:24Z</time></trkpt>
<trkpt lat="48.03788644" lon="0.41993184"><ele>64.545654</ele><time>2007-07-26T17:43:28Z</time></trkpt>
<trkpt lat="48.03796398" lon="0.42050449"><ele>63.584351</ele><time>2007-07-26T17:43:35Z</time></trkpt>
<trkpt lat="48.03797739" lon="0.42059275"><ele>63.584351</ele><time>2007-07-26T17:43:36Z</time></trkpt>
<trkpt lat="48.03801963" lon="0.42076374"><ele>63.584351</ele><time>2007-07-26T17:43:38Z</time></trkpt>
<trkpt lat="48.03803036" lon="0.42109718"><ele>64.065063</ele><time>2007-07-26T17:43:42Z</time></trkpt>
<trkpt lat="48.03810135" lon="0.42177234"><ele>63.103638</ele><time>2007-07-26T17:43:50Z</time></trkpt>
<trkpt lat="48.03823203" lon="0.42206788"><ele>62.622925</ele><time>2007-07-26T17:43:54Z</time></trkpt>
<trkpt lat="48.03827000" lon="0.42234105"><ele>63.584351</ele><time>2007-07-26T17:43:57Z</time></trkpt>
<trkpt lat="48.03826774" lon="0.42243409"><ele>64.545654</ele><time>2007-07-26T17:43:58Z</time></trkpt>
<trkpt lat="48.03823329" lon="0.42288554"><ele>65.987671</ele><time>2007-07-26T17:44:03Z</time></trkpt>
<trkpt lat="48.03822842" lon="0.42297246"><ele>66.948975</ele><time>2007-07-26T17:44:04Z</time></trkpt>
<trkpt lat="48.03830638" lon="0.42333749"><ele>67.429688</ele><time>2007-07-26T17:44:09Z</time></trkpt>
<trkpt lat="48.03845566" lon="0.42346205"><ele>67.429688</ele><time>2007-07-26T17:44:12Z</time></trkpt>
<trkpt lat="48.03850964" lon="0.42362985"><ele>67.429688</ele><time>2007-07-26T17:44:14Z</time></trkpt>
<trkpt lat="48.03859689" lon="0.42421642"><ele>67.429688</ele><time>2007-07-26T17:44:20Z</time></trkpt>
<trkpt lat="48.03856714" lon="0.42489753"><ele>65.987671</ele><time>2007-07-26T17:44:26Z</time></trkpt>
<trkpt lat="48.03856848" lon="0.42525234"><ele>65.987671</ele><time>2007-07-26T17:44:29Z</time></trkpt>
<trkpt lat="48.03844669" lon="0.42561058"><ele>65.987671</ele><time>2007-07-26T17:44:33Z</time></trkpt>
<trkpt lat="48.03799826" lon="0.42605524"><ele>68.871582</ele><time>2007-07-26T17:44:41Z</time></trkpt>
<trkpt lat="48.03761587" lon="0.42632673"><ele>68.871582</ele><time>2007-07-26T17:44:48Z</time></trkpt>
<trkpt lat="48.03729150" lon="0.42650803"><ele>69.352295</ele><time>2007-07-26T17:44:54Z</time></trkpt>
<trkpt lat="48.03701816" lon="0.42659939"><ele>70.794189</ele><time>2007-07-26T17:44:59Z</time></trkpt>
<trkpt lat="48.03673762" lon="0.42657643"><ele>71.274902</ele><time>2007-07-26T17:45:04Z</time></trkpt>
<trkpt lat="48.03652522" lon="0.42668497"><ele>70.313477</ele><time>2007-07-26T17:45:08Z</time></trkpt>
<trkpt lat="48.03641835" lon="0.42690835"><ele>70.313477</ele><time>2007-07-26T17:45:11Z</time></trkpt>
<trkpt lat="48.03637535" lon="0.42697658"><ele>69.832886</ele><time>2007-07-26T17:45:12Z</time></trkpt>
<trkpt lat="48.03580656" lon="0.42772056"><ele>70.313477</ele><time>2007-07-26T17:45:24Z</time></trkpt>
<trkpt lat="48.03557723" lon="0.42810562"><ele>70.794189</ele><time>2007-07-26T17:45:30Z</time></trkpt>
<trkpt lat="48.03539316" lon="0.42866394"><ele>72.716919</ele><time>2007-07-26T17:45:38Z</time></trkpt>
<trkpt lat="48.03531286" lon="0.42942217"><ele>73.678223</ele><time>2007-07-26T17:45:48Z</time></trkpt>
<trkpt lat="48.03530817" lon="0.42974185"><ele>73.678223</ele><time>2007-07-26T17:45:52Z</time></trkpt>
<trkpt lat="48.03526123" lon="0.43047016"><ele>73.678223</ele><time>2007-07-26T17:46:01Z</time></trkpt>
<trkpt lat="48.03522184" lon="0.43112889"><ele>74.158813</ele><time>2007-07-26T17:46:09Z</time></trkpt>
<trkpt lat="48.03518722" lon="0.43180573"><ele>75.120239</ele><time>2007-07-26T17:46:17Z</time></trkpt>
<trkpt lat="48.03514263" lon="0.43266370"><ele>75.120239</ele><time>2007-07-26T17:46:27Z</time></trkpt>
<trkpt lat="48.03510348" lon="0.43343534"><ele>75.60083</ele><time>2007-07-26T17:46:36Z</time></trkpt>
<trkpt lat="48.03499879" lon="0.43361203"><ele>77.042847</ele><time>2007-07-26T17:46:40Z</time></trkpt>
<trkpt lat="48.03488488" lon="0.43373549"><ele>77.523438</ele><time>2007-07-26T17:46:46Z</time></trkpt>
<trkpt lat="48.03485270" lon="0.43378972"><ele>78.484741</ele><time>2007-07-26T17:46:48Z</time></trkpt>
<trkpt lat="48.03475002" lon="0.43391436"><ele>79.446045</ele><time>2007-07-26T17:46:53Z</time></trkpt>
<trkpt lat="48.03473057" lon="0.43394093"><ele>78.484741</ele><time>2007-07-26T17:46:54Z</time></trkpt>
<trkpt lat="48.03462102" lon="0.43409382"><ele>80.407471</ele><time>2007-07-26T17:46:59Z</time></trkpt>
<trkpt lat="48.03446738" lon="0.43431234"><ele>81.849365</ele><time>2007-07-26T17:47:06Z</time></trkpt>
<trkpt lat="48.03439362" lon="0.43442625"><ele>82.810791</ele><time>2007-07-26T17:47:11Z</time></trkpt>
<trkpt lat="48.03437359" lon="0.43443949"><ele>83.771973</ele><time>2007-07-26T17:47:12Z</time></trkpt>
<trkpt lat="48.03423897" lon="0.43460763"><ele>84.733398</ele><time>2007-07-26T17:47:18Z</time></trkpt>
<trkpt lat="48.03411702" lon="0.43475574"><ele>85.213989</ele><time>2007-07-26T17:47:23Z</time></trkpt>
<trkpt lat="48.03398333" lon="0.43491374"><ele>85.69458</ele><time>2007-07-26T17:47:28Z</time></trkpt>
<trkpt lat="48.03382684" lon="0.43506227"><ele>86.175293</ele><time>2007-07-26T17:47:33Z</time></trkpt>
<trkpt lat="48.03368594" lon="0.43515807"><ele>86.175293</ele><time>2007-07-26T17:47:37Z</time></trkpt>
<trkpt lat="48.03360656" lon="0.43526209"><ele>86.656006</ele><time>2007-07-26T17:47:40Z</time></trkpt>
<trkpt lat="48.03344982" lon="0.43533652"><ele>87.136597</ele><time>2007-07-26T17:47:45Z</time></trkpt>
<trkpt lat="48.03331655" lon="0.43551464"><ele>86.656006</ele><time>2007-07-26T17:47:49Z</time></trkpt>
<trkpt lat="48.03315972" lon="0.43565218"><ele>87.136597</ele><time>2007-07-26T17:47:54Z</time></trkpt>
<trkpt lat="48.03313365" lon="0.43567976"><ele>87.136597</ele><time>2007-07-26T17:47:55Z</time></trkpt>
<trkpt lat="48.03304019" lon="0.43583365"><ele>87.617188</ele><time>2007-07-26T17:48:01Z</time></trkpt>
<trkpt lat="48.03299828" lon="0.43589182"><ele>88.098022</ele><time>2007-07-26T17:48:03Z</time></trkpt>
<trkpt lat="48.03285806" lon="0.43607178"><ele>88.578735</ele><time>2007-07-26T17:48:10Z</time></trkpt>
<trkpt lat="48.03274465" lon="0.43621687"><ele>89.059326</ele><time>2007-07-26T17:48:15Z</time></trkpt>
<trkpt lat="48.03260056" lon="0.43635568"><ele>89.539917</ele><time>2007-07-26T17:48:21Z</time></trkpt>
<trkpt lat="48.03247115" lon="0.43648702"><ele>89.539917</ele><time>2007-07-26T17:48:26Z</time></trkpt>
<trkpt lat="48.03237207" lon="0.43657025"><ele>91.462524</ele><time>2007-07-26T17:48:30Z</time></trkpt>
<trkpt lat="48.03224584" lon="0.43665944"><ele>92.42395</ele><time>2007-07-26T17:48:35Z</time></trkpt>
<trkpt lat="48.03217057" lon="0.43670889"><ele>92.42395</ele><time>2007-07-26T17:48:39Z</time></trkpt>
<trkpt lat="48.03199355" lon="0.43671082"><ele>94.346558</ele><time>2007-07-26T17:48:46Z</time></trkpt>
<trkpt lat="48.03184024" lon="0.43669330"><ele>94.827148</ele><time>2007-07-26T17:48:53Z</time></trkpt>
<trkpt lat="48.03167646" lon="0.43668333"><ele>96.749878</ele><time>2007-07-26T17:48:59Z</time></trkpt>
<trkpt lat="48.03155442" lon="0.43667067"><ele>97.711182</ele><time>2007-07-26T17:49:05Z</time></trkpt>
<trkpt lat="48.03150589" lon="0.43666120"><ele>98.191895</ele><time>2007-07-26T17:49:08Z</time></trkpt>
<trkpt lat="48.03136876" lon="0.43665810"><ele>100.114502</ele><time>2007-07-26T17:49:15Z</time></trkpt>
<trkpt lat="48.03126625" lon="0.43663898"><ele>101.075684</ele><time>2007-07-26T17:49:21Z</time></trkpt>
<trkpt lat="48.03124722" lon="0.43663748"><ele>101.075684</ele><time>2007-07-26T17:49:22Z</time></trkpt>
<trkpt lat="48.03114563" lon="0.43662113"><ele>102.998291</ele><time>2007-07-26T17:49:28Z</time></trkpt>
<trkpt lat="48.03102108" lon="0.43658978"><ele>104.921021</ele><time>2007-07-26T17:49:35Z</time></trkpt>
<trkpt lat="48.03095469" lon="0.43661686"><ele>105.882446</ele><time>2007-07-26T17:49:40Z</time></trkpt>
<trkpt lat="48.03088604" lon="0.43665642"><ele>107.324341</ele><time>2007-07-26T17:49:45Z</time></trkpt>
<trkpt lat="48.03086534" lon="0.43668559"><ele>108.285645</ele><time>2007-07-26T17:49:48Z</time></trkpt>
<trkpt lat="48.03080348" lon="0.43677276"><ele>110.208252</ele><time>2007-07-26T17:49:52Z</time></trkpt>
<trkpt lat="48.03069376" lon="0.43689824"><ele>111.169556</ele><time>2007-07-26T17:49:58Z</time></trkpt>
<trkpt lat="48.03055018" lon="0.43705699"><ele>111.650269</ele><time>2007-07-26T17:50:05Z</time></trkpt>
<trkpt lat="48.03032303" lon="0.43726319"><ele>112.130981</ele><time>2007-07-26T17:50:14Z</time></trkpt>
<trkpt lat="48.03008054" lon="0.43741959"><ele>112.611572</ele><time>2007-07-26T17:50:23Z</time></trkpt>
<trkpt lat="48.02983990" lon="0.43758119"><ele>113.572998</ele><time>2007-07-26T17:50:32Z</time></trkpt>
<trkpt lat="48.02965365" lon="0.43774087"><ele>114.53418</ele><time>2007-07-26T17:50:40Z</time></trkpt>
<trkpt lat="48.02946514" lon="0.43780248"><ele>115.495605</ele><time>2007-07-26T17:50:48Z</time></trkpt>
<trkpt lat="48.02935777" lon="0.43782117"><ele>115.976196</ele><time>2007-07-26T17:50:53Z</time></trkpt>
<trkpt lat="48.02921779" lon="0.43784112"><ele>116.9375</ele><time>2007-07-26T17:50:59Z</time></trkpt>
<trkpt lat="48.02914278" lon="0.43786065"><ele>118.860107</ele><time>2007-07-26T17:51:04Z</time></trkpt>
<trkpt lat="48.02905208" lon="0.43786366"><ele>120.302124</ele><time>2007-07-26T17:51:08Z</time></trkpt>
<trkpt lat="48.02893667" lon="0.43787624"><ele>121.26355</ele><time>2007-07-26T17:51:14Z</time></trkpt>
<trkpt lat="48.02891487" lon="0.43788437"><ele>121.26355</ele><time>2007-07-26T17:51:15Z</time></trkpt>
<trkpt lat="48.02880582" lon="0.43788663"><ele>123.186157</ele><time>2007-07-26T17:51:21Z</time></trkpt>
<trkpt lat="48.02868630" lon="0.43792033"><ele>124.628052</ele><time>2007-07-26T17:51:28Z</time></trkpt>
<trkpt lat="48.02858706" lon="0.43792636"><ele>126.550659</ele><time>2007-07-26T17:51:34Z</time></trkpt>
<trkpt lat="48.02857029" lon="0.43792737"><ele>126.550659</ele><time>2007-07-26T17:51:35Z</time></trkpt>
<trkpt lat="48.02846619" lon="0.43794983"><ele>127.031372</ele><time>2007-07-26T17:51:41Z</time></trkpt>
<trkpt lat="48.02830098" lon="0.43798713"><ele>129.434692</ele><time>2007-07-26T17:51:49Z</time></trkpt>
<trkpt lat="48.02813360" lon="0.43804874"><ele>130.395996</ele><time>2007-07-26T17:51:56Z</time></trkpt>
<trkpt lat="48.02798775" lon="0.43819835"><ele>131.3573</ele><time>2007-07-26T17:52:02Z</time></trkpt>
<trkpt lat="48.02777686" lon="0.43855417"><ele>132.318604</ele><time>2007-07-26T17:52:11Z</time></trkpt>
<trkpt lat="48.02762247" lon="0.43887008"><ele>132.318604</ele><time>2007-07-26T17:52:18Z</time></trkpt>
<trkpt lat="48.02748383" lon="0.43916722"><ele>132.318604</ele><time>2007-07-26T17:52:24Z</time></trkpt>
<trkpt lat="48.02726230" lon="0.43963208"><ele>131.837891</ele><time>2007-07-26T17:52:32Z</time></trkpt>
<trkpt lat="48.02704428" lon="0.43996199"><ele>132.318604</ele><time>2007-07-26T17:52:38Z</time></trkpt>
<trkpt lat="48.02680096" lon="0.44023817"><ele>132.799316</ele><time>2007-07-26T17:52:44Z</time></trkpt>
<trkpt lat="48.02640097" lon="0.44057655"><ele>132.799316</ele><time>2007-07-26T17:52:53Z</time></trkpt>
<trkpt lat="48.02607156" lon="0.44083756"><ele>130.876709</ele><time>2007-07-26T17:53:00Z</time></trkpt>
<trkpt lat="48.02590099" lon="0.44097712"><ele>131.837891</ele><time>2007-07-26T17:53:04Z</time></trkpt>
<trkpt lat="48.02585984" lon="0.44101384"><ele>131.837891</ele><time>2007-07-26T17:53:05Z</time></trkpt>
<trkpt lat="48.02573905" lon="0.44123470"><ele>131.837891</ele><time>2007-07-26T17:53:09Z</time></trkpt>
<trkpt lat="48.02568524" lon="0.44145598"><ele>131.3573</ele><time>2007-07-26T17:53:12Z</time></trkpt>
<trkpt lat="48.02545474" lon="0.44199184"><ele>130.876709</ele><time>2007-07-26T17:53:19Z</time></trkpt>
<trkpt lat="48.02522709" lon="0.44262048"><ele>129.915283</ele><time>2007-07-26T17:53:26Z</time></trkpt>
<trkpt lat="48.02505995" lon="0.44344962"><ele>127.511963</ele><time>2007-07-26T17:53:34Z</time></trkpt>
<trkpt lat="48.02491989" lon="0.44395429"><ele>126.069946</ele><time>2007-07-26T17:53:39Z</time></trkpt>
<trkpt lat="48.02472912" lon="0.44454748"><ele>125.108765</ele><time>2007-07-26T17:53:45Z</time></trkpt>
<trkpt lat="48.02470012" lon="0.44463960"><ele>124.628052</ele><time>2007-07-26T17:53:46Z</time></trkpt>
<trkpt lat="48.02447364" lon="0.44534544"><ele>121.744141</ele><time>2007-07-26T17:53:54Z</time></trkpt>
<trkpt lat="48.02423098" lon="0.44616175"><ele>121.26355</ele><time>2007-07-26T17:54:03Z</time></trkpt>
<trkpt lat="48.02412168" lon="0.44661823"><ele>122.224731</ele><time>2007-07-26T17:54:08Z</time></trkpt>
<trkpt lat="48.02398413" lon="0.44732088"><ele>124.628052</ele><time>2007-07-26T17:54:16Z</time></trkpt>
<trkpt lat="48.02386528" lon="0.44788322"><ele>123.186157</ele><time>2007-07-26T17:54:23Z</time></trkpt>
<trkpt lat="48.02370242" lon="0.44856057"><ele>124.147339</ele><time>2007-07-26T17:54:32Z</time></trkpt>
<trkpt lat="48.02357468" lon="0.44887288"><ele>125.589355</ele><time>2007-07-26T17:54:37Z</time></trkpt>
<trkpt lat="48.02344183" lon="0.44907354"><ele>126.550659</ele><time>2007-07-26T17:54:41Z</time></trkpt>
<trkpt lat="48.02318056" lon="0.44938962"><ele>127.511963</ele><time>2007-07-26T17:54:48Z</time></trkpt>
<trkpt lat="48.02284327" lon="0.44980662"><ele>128.473389</ele><time>2007-07-26T17:54:57Z</time></trkpt>
<trkpt lat="48.02257363" lon="0.45016453"><ele>129.434692</ele><time>2007-07-26T17:55:05Z</time></trkpt>
<trkpt lat="48.02262794" lon="0.45036552"><ele>128.954102</ele><time>2007-07-26T17:55:09Z</time></trkpt>
<trkpt lat="48.02269584" lon="0.45046435"><ele>128.473389</ele><time>2007-07-26T17:55:11Z</time></trkpt>
<trkpt lat="48.02303254" lon="0.45105334"><ele>128.954102</ele><time>2007-07-26T17:55:21Z</time></trkpt>
<trkpt lat="48.02336387" lon="0.45158467"><ele>129.915283</ele><time>2007-07-26T17:55:30Z</time></trkpt>
<trkpt lat="48.02369588" lon="0.45200192"><ele>130.876709</ele><time>2007-07-26T17:55:38Z</time></trkpt>
<trkpt lat="48.02417348" lon="0.45244952"><ele>132.318604</ele><time>2007-07-26T17:55:48Z</time></trkpt>
<trkpt lat="48.02458864" lon="0.45271774"><ele>133.279907</ele><time>2007-07-26T17:55:56Z</time></trkpt>
<trkpt lat="48.02479039" lon="0.45291362"><ele>134.241211</ele><time>2007-07-26T17:56:00Z</time></trkpt>
<trkpt lat="48.02524477" lon="0.45353732"><ele>135.202515</ele><time>2007-07-26T17:56:10Z</time></trkpt>
<trkpt lat="48.02542523" lon="0.45378693"><ele>136.644653</ele><time>2007-07-26T17:56:14Z</time></trkpt>
<trkpt lat="48.02573604" lon="0.45419346"><ele>137.125244</ele><time>2007-07-26T17:56:21Z</time></trkpt>
<trkpt lat="48.02594818" lon="0.45445992"><ele>137.605835</ele><time>2007-07-26T17:56:26Z</time></trkpt>
<trkpt lat="48.02635345" lon="0.45488823"><ele>139.528442</ele><time>2007-07-26T17:56:35Z</time></trkpt>
<trkpt lat="48.02669635" lon="0.45529006"><ele>141.45105</ele><time>2007-07-26T17:56:43Z</time></trkpt>
<trkpt lat="48.02704965" lon="0.45578015"><ele>141.931763</ele><time>2007-07-26T17:56:52Z</time></trkpt>
<trkpt lat="48.02741418" lon="0.45637409"><ele>142.412476</ele><time>2007-07-26T17:57:02Z</time></trkpt>
<trkpt lat="48.02779136" lon="0.45699997"><ele>142.412476</ele><time>2007-07-26T17:57:12Z</time></trkpt>
<trkpt lat="48.02817626" lon="0.45764269"><ele>142.412476</ele><time>2007-07-26T17:57:22Z</time></trkpt>
<trkpt lat="48.02847365" lon="0.45817067"><ele>142.893066</ele><time>2007-07-26T17:57:30Z</time></trkpt>
<trkpt lat="48.02871379" lon="0.45865648"><ele>143.373657</ele><time>2007-07-26T17:57:37Z</time></trkpt>
<trkpt lat="48.02874346" lon="0.45872773"><ele>143.373657</ele><time>2007-07-26T17:57:38Z</time></trkpt>
<trkpt lat="48.02884866" lon="0.45894708"><ele>143.373657</ele><time>2007-07-26T17:57:41Z</time></trkpt>
<trkpt lat="48.02901554" lon="0.45932184"><ele>143.373657</ele><time>2007-07-26T17:57:46Z</time></trkpt>
<trkpt lat="48.02907128" lon="0.45945637"><ele>142.412476</ele><time>2007-07-26T17:57:48Z</time></trkpt>
<trkpt lat="48.02914152" lon="0.45943525"><ele>142.893066</ele><time>2007-07-26T17:57:52Z</time></trkpt>
<trkpt lat="48.02913113" lon="0.45927482"><ele>143.373657</ele><time>2007-07-26T17:57:57Z</time></trkpt>
<trkpt lat="48.02912476" lon="0.45922914"><ele>143.373657</ele><time>2007-07-26T17:57:58Z</time></trkpt>
<trkpt lat="48.02909232" lon="0.45892429"><ele>143.373657</ele><time>2007-07-26T17:58:03Z</time></trkpt>
<trkpt lat="48.02909039" lon="0.45877894"><ele>143.373657</ele><time>2007-07-26T17:58:05Z</time></trkpt>
<trkpt lat="48.02909575" lon="0.45861684"><ele>143.373657</ele><time>2007-07-26T17:58:07Z</time></trkpt>
<trkpt lat="48.02907413" lon="0.45832892"><ele>142.893066</ele><time>2007-07-26T17:58:11Z</time></trkpt>
<trkpt lat="48.02907488" lon="0.45782592"><ele>140.489868</ele><time>2007-07-26T17:58:17Z</time></trkpt>
<trkpt lat="48.02908603" lon="0.45764688"><ele>139.528442</ele><time>2007-07-26T17:58:19Z</time></trkpt>
<trkpt lat="48.02908008" lon="0.45747329"><ele>138.567261</ele><time>2007-07-26T17:58:21Z</time></trkpt>
<trkpt lat="48.02908318" lon="0.45730599"><ele>137.605835</ele><time>2007-07-26T17:58:23Z</time></trkpt>
<trkpt lat="48.02908234" lon="0.45713517"><ele>136.644653</ele><time>2007-07-26T17:58:25Z</time></trkpt>
<trkpt lat="48.02905753" lon="0.45677559"><ele>136.16394</ele><time>2007-07-26T17:58:29Z</time></trkpt>
<trkpt lat="48.02902308" lon="0.45650334"><ele>135.683105</ele><time>2007-07-26T17:58:32Z</time></trkpt>
<trkpt lat="48.02889392" lon="0.45617477"><ele>134.721924</ele><time>2007-07-26T17:58:36Z</time></trkpt>
<trkpt lat="48.02865847" lon="0.45577504"><ele>134.721924</ele><time>2007-07-26T17:58:42Z</time></trkpt>
<trkpt lat="48.02859175" lon="0.45556088"><ele>133.279907</ele><time>2007-07-26T17:58:45Z</time></trkpt>
<trkpt lat="48.02856744" lon="0.45532602"><ele>131.3573</ele><time>2007-07-26T17:58:48Z</time></trkpt>
<trkpt lat="48.02855370" lon="0.45500742"><ele>130.395996</ele><time>2007-07-26T17:58:53Z</time></trkpt>
<trkpt lat="48.02855303" lon="0.45488982"><ele>130.876709</ele><time>2007-07-26T17:58:55Z</time></trkpt>
<trkpt lat="48.02855118" lon="0.45476007"><ele>131.3573</ele><time>2007-07-26T17:58:57Z</time></trkpt>
<trkpt lat="48.02862729" lon="0.45410939"><ele>131.837891</ele><time>2007-07-26T17:59:06Z</time></trkpt>
<trkpt lat="48.02869694" lon="0.45350824"><ele>130.395996</ele><time>2007-07-26T17:59:14Z</time></trkpt>
<trkpt lat="48.02874514" lon="0.45307456"><ele>128.954102</ele><time>2007-07-26T17:59:19Z</time></trkpt>
<trkpt lat="48.02878872" lon="0.45263082"><ele>127.992554</ele><time>2007-07-26T17:59:24Z</time></trkpt>
<trkpt lat="48.02893030" lon="0.45230795"><ele>127.992554</ele><time>2007-07-26T17:59:29Z</time></trkpt>
<trkpt lat="48.02937437" lon="0.45184577"><ele>129.434692</ele><time>2007-07-26T17:59:39Z</time></trkpt>
<trkpt lat="48.02976505" lon="0.45156665"><ele>128.954102</ele><time>2007-07-26T17:59:47Z</time></trkpt>
<trkpt lat="48.02990058" lon="0.45150194"><ele>130.876709</ele><time>2007-07-26T17:59:50Z</time></trkpt>
<trkpt lat="48.02994484" lon="0.45148912"><ele>130.876709</ele><time>2007-07-26T17:59:51Z</time></trkpt>
<trkpt lat="48.03018616" lon="0.45150362"><ele>131.837891</ele><time>2007-07-26T17:59:56Z</time></trkpt>
<trkpt lat="48.03029370" lon="0.45141293"><ele>131.837891</ele><time>2007-07-26T17:59:59Z</time></trkpt>
<trkpt lat="48.03029068" lon="0.45131008"><ele>132.318604</ele><time>2007-07-26T18:00:01Z</time></trkpt>
<trkpt lat="48.03023913" lon="0.45098704"><ele>133.279907</ele><time>2007-07-26T18:00:07Z</time></trkpt>
<trkpt lat="48.03017836" lon="0.45077322"><ele>133.760498</ele><time>2007-07-26T18:00:11Z</time></trkpt>
<trkpt lat="48.03023293" lon="0.45055026"><ele>133.760498</ele><time>2007-07-26T18:00:15Z</time></trkpt>
<trkpt lat="48.03028925" lon="0.45047306"><ele>134.241211</ele><time>2007-07-26T18:00:17Z</time></trkpt>
<trkpt lat="48.03049008" lon="0.45018096"><ele>133.760498</ele><time>2007-07-26T18:00:24Z</time></trkpt>
<trkpt lat="48.03066669" lon="0.44992598"><ele>134.721924</ele><time>2007-07-26T18:00:29Z</time></trkpt>
<trkpt lat="48.03072729" lon="0.44981349"><ele>134.241211</ele><time>2007-07-26T18:00:31Z</time></trkpt>
<trkpt lat="48.03084724" lon="0.44943438"><ele>134.241211</ele><time>2007-07-26T18:00:37Z</time></trkpt>
<trkpt lat="48.03086517" lon="0.44931795"><ele>134.241211</ele><time>2007-07-26T18:00:39Z</time></trkpt>
<trkpt lat="48.03097255" lon="0.44889542"><ele>133.760498</ele><time>2007-07-26T18:00:45Z</time></trkpt>
<trkpt lat="48.03099124" lon="0.44882325"><ele>134.241211</ele><time>2007-07-26T18:00:46Z</time></trkpt>
<trkpt lat="48.03116198" lon="0.44858672"><ele>134.241211</ele><time>2007-07-26T18:00:51Z</time></trkpt>
<trkpt lat="48.03120866" lon="0.44857725"><ele>133.760498</ele><time>2007-07-26T18:00:52Z</time></trkpt>
<trkpt lat="48.03135476" lon="0.44856467"><ele>133.760498</ele><time>2007-07-26T18:00:55Z</time></trkpt>
<trkpt lat="48.03147119" lon="0.44850935"><ele>134.241211</ele><time>2007-07-26T18:00:58Z</time></trkpt>
<trkpt lat="48.03159515" lon="0.44822806"><ele>134.721924</ele><time>2007-07-26T18:01:03Z</time></trkpt>
<trkpt lat="48.03168987" lon="0.44755650"><ele>132.318604</ele><time>2007-07-26T18:01:11Z</time></trkpt>
<trkpt lat="48.03182356" lon="0.44730613"><ele>131.837891</ele><time>2007-07-26T18:01:15Z</time></trkpt>
<trkpt lat="48.03197787" lon="0.44726087"><ele>131.837891</ele><time>2007-07-26T18:01:19Z</time></trkpt>
<trkpt lat="48.03215909" lon="0.44719859"><ele>132.318604</ele><time>2007-07-26T18:01:24Z</time></trkpt>
<trkpt lat="48.03234416" lon="0.44709289"><ele>132.799316</ele><time>2007-07-26T18:01:29Z</time></trkpt>
<trkpt lat="48.03260123" lon="0.44694152"><ele>132.799316</ele><time>2007-07-26T18:01:35Z</time></trkpt>
<trkpt lat="48.03276887" lon="0.44689718"><ele>132.799316</ele><time>2007-07-26T18:01:40Z</time></trkpt>
<trkpt lat="48.03296576" lon="0.44678737"><ele>132.318604</ele><time>2007-07-26T18:01:46Z</time></trkpt>
<trkpt lat="48.03319425" lon="0.44669383"><ele>132.799316</ele><time>2007-07-26T18:01:52Z</time></trkpt>
<trkpt lat="48.03347957" lon="0.44662326"><ele>133.760498</ele><time>2007-07-26T18:02:00Z</time></trkpt>
<trkpt lat="48.03360404" lon="0.44650298"><ele>134.241211</ele><time>2007-07-26T18:02:04Z</time></trkpt>
<trkpt lat="48.03374025" lon="0.44622973"><ele>134.241211</ele><time>2007-07-26T18:02:10Z</time></trkpt>
<trkpt lat="48.03383572" lon="0.44604340"><ele>132.799316</ele><time>2007-07-26T18:02:14Z</time></trkpt>
<trkpt lat="48.03393463" lon="0.44589797"><ele>131.837891</ele><time>2007-07-26T18:02:17Z</time></trkpt>
<trkpt lat="48.03401132" lon="0.44579999"><ele>130.876709</ele><time>2007-07-26T18:02:19Z</time></trkpt>
<trkpt lat="48.03415423" lon="0.44552674"><ele>129.915283</ele><time>2007-07-26T18:02:23Z</time></trkpt>
<trkpt lat="48.03421919" lon="0.44514167"><ele>125.589355</ele><time>2007-07-26T18:02:28Z</time></trkpt>
<trkpt lat="48.03421089" lon="0.44506489"><ele>124.628052</ele><time>2007-07-26T18:02:29Z</time></trkpt>
<trkpt lat="48.03417452" lon="0.44478485"><ele>120.782837</ele><time>2007-07-26T18:02:34Z</time></trkpt>
<trkpt lat="48.03411794" lon="0.44458168"><ele>118.860107</ele><time>2007-07-26T18:02:38Z</time></trkpt>
<trkpt lat="48.03410126" lon="0.44453373"><ele>118.860107</ele><time>2007-07-26T18:02:39Z</time></trkpt>
<trkpt lat="48.03401266" lon="0.44435453"><ele>116.9375</ele><time>2007-07-26T18:02:44Z</time></trkpt>
<trkpt lat="48.03397939" lon="0.44421748"><ele>115.014893</ele><time>2007-07-26T18:02:46Z</time></trkpt>
<trkpt lat="48.03393563" lon="0.44380157"><ele>112.611572</ele><time>2007-07-26T18:02:50Z</time></trkpt>
<trkpt lat="48.03392482" lon="0.44368775"><ele>111.650269</ele><time>2007-07-26T18:02:51Z</time></trkpt>
<trkpt lat="48.03392608" lon="0.44334074"><ele>109.727661</ele><time>2007-07-26T18:02:54Z</time></trkpt>
<trkpt lat="48.03394125" lon="0.44322146"><ele>108.285645</ele><time>2007-07-26T18:02:55Z</time></trkpt>
<trkpt lat="48.03398668" lon="0.44262484"><ele>104.44043</ele><time>2007-07-26T18:03:00Z</time></trkpt>
<trkpt lat="48.03393899" lon="0.44223407"><ele>101.556396</ele><time>2007-07-26T18:03:03Z</time></trkpt>
<trkpt lat="48.03387989" lon="0.44195957"><ele>100.114502</ele><time>2007-07-26T18:03:05Z</time></trkpt>
<trkpt lat="48.03376405" lon="0.44138758"><ele>95.788452</ele><time>2007-07-26T18:03:09Z</time></trkpt>
<trkpt lat="48.03369205" lon="0.44094259"><ele>94.346558</ele><time>2007-07-26T18:03:12Z</time></trkpt>
<trkpt lat="48.03360002" lon="0.44040087"><ele>90.981934</ele><time>2007-07-26T18:03:16Z</time></trkpt>
<trkpt lat="48.03358485" lon="0.44015989"><ele>90.02063</ele><time>2007-07-26T18:03:18Z</time></trkpt>
<trkpt lat="48.03366565" lon="0.43950107"><ele>87.136597</ele><time>2007-07-26T18:03:24Z</time></trkpt>
<trkpt lat="48.03381963" lon="0.43871325"><ele>85.213989</ele><time>2007-07-26T18:03:32Z</time></trkpt>
<trkpt lat="48.03388668" lon="0.43826357"><ele>85.213989</ele><time>2007-07-26T18:03:37Z</time></trkpt>
<trkpt lat="48.03389708" lon="0.43818377"><ele>85.213989</ele><time>2007-07-26T18:03:38Z</time></trkpt>
<trkpt lat="48.03404535" lon="0.43774850"><ele>82.330078</ele><time>2007-07-26T18:03:44Z</time></trkpt>
<trkpt lat="48.03423327" lon="0.43731675"><ele>80.407471</ele><time>2007-07-26T18:03:50Z</time></trkpt>
<trkpt lat="48.03448758" lon="0.43678533"><ele>79.446045</ele><time>2007-07-26T18:03:57Z</time></trkpt>
<trkpt lat="48.03476603" lon="0.43625752"><ele>80.407471</ele><time>2007-07-26T18:04:04Z</time></trkpt>
<trkpt lat="48.03491279" lon="0.43590616"><ele>79.926636</ele><time>2007-07-26T18:04:08Z</time></trkpt>
<trkpt lat="48.03504892" lon="0.43520509"><ele>79.926636</ele><time>2007-07-26T18:04:15Z</time></trkpt>
<trkpt lat="48.03509477" lon="0.43449146"><ele>78.965454</ele><time>2007-07-26T18:04:22Z</time></trkpt>
<trkpt lat="48.03512729" lon="0.43366844"><ele>78.484741</ele><time>2007-07-26T18:04:30Z</time></trkpt>
<trkpt lat="48.03517213" lon="0.43280468"><ele>78.484741</ele><time>2007-07-26T18:04:38Z</time></trkpt>
<trkpt lat="48.03522234" lon="0.43179299"><ele>78.004028</ele><time>2007-07-26T18:04:47Z</time></trkpt>
<trkpt lat="48.03526802" lon="0.43084064"><ele>78.965454</ele><time>2007-07-26T18:04:55Z</time></trkpt>
<trkpt lat="48.03531840" lon="0.42994696"><ele>78.004028</ele><time>2007-07-26T18:05:02Z</time></trkpt>
<trkpt lat="48.03534882" lon="0.42930733"><ele>76.081421</ele><time>2007-07-26T18:05:07Z</time></trkpt>
<trkpt lat="48.03543448" lon="0.42854282"><ele>76.562134</ele><time>2007-07-26T18:05:13Z</time></trkpt>
<trkpt lat="48.03546432" lon="0.42842070"><ele>77.042847</ele><time>2007-07-26T18:05:14Z</time></trkpt>
<trkpt lat="48.03575635" lon="0.42777068"><ele>74.158813</ele><time>2007-07-26T18:05:20Z</time></trkpt>
<trkpt lat="48.03595508" lon="0.42750615"><ele>71.274902</ele><time>2007-07-26T18:05:23Z</time></trkpt>
<trkpt lat="48.03619933" lon="0.42720909"><ele>69.832886</ele><time>2007-07-26T18:05:27Z</time></trkpt>
<trkpt lat="48.03646923" lon="0.42700969"><ele>71.274902</ele><time>2007-07-26T18:05:32Z</time></trkpt>
<trkpt lat="48.03655053" lon="0.42702536"><ele>71.274902</ele><time>2007-07-26T18:05:35Z</time></trkpt>
<trkpt lat="48.03665137" lon="0.42708605"><ele>71.274902</ele><time>2007-07-26T18:05:38Z</time></trkpt>
<trkpt lat="48.03683309" lon="0.42704372"><ele>70.794189</ele><time>2007-07-26T18:05:42Z</time></trkpt>
<trkpt lat="48.03695588" lon="0.42685278"><ele>71.755493</ele><time>2007-07-26T18:05:45Z</time></trkpt>
<trkpt lat="48.03707474" lon="0.42664994"><ele>69.832886</ele><time>2007-07-26T18:05:48Z</time></trkpt>
<trkpt lat="48.03713073" lon="0.42660744"><ele>69.832886</ele><time>2007-07-26T18:05:49Z</time></trkpt>
<trkpt lat="48.03762786" lon="0.42630418"><ele>68.871582</ele><time>2007-07-26T18:05:57Z</time></trkpt>
<trkpt lat="48.03807638" lon="0.42597963"><ele>67.429688</ele><time>2007-07-26T18:06:04Z</time></trkpt>
<trkpt lat="48.03848449" lon="0.42553464"><ele>65.987671</ele><time>2007-07-26T18:06:11Z</time></trkpt>
<trkpt lat="48.03858482" lon="0.42539374"><ele>65.026367</ele><time>2007-07-26T18:06:13Z</time></trkpt>
<trkpt lat="48.03865515" lon="0.42517145"><ele>64.545654</ele><time>2007-07-26T18:06:16Z</time></trkpt>
<trkpt lat="48.03863805" lon="0.42509518"><ele>66.468262</ele><time>2007-07-26T18:06:17Z</time></trkpt>
<trkpt lat="48.03860670" lon="0.42454557"><ele>65.987671</ele><time>2007-07-26T18:06:24Z</time></trkpt>
<trkpt lat="48.03861885" lon="0.42437593"><ele>66.948975</ele><time>2007-07-26T18:06:26Z</time></trkpt>
<trkpt lat="48.03858717" lon="0.42393839"><ele>68.390869</ele><time>2007-07-26T18:06:31Z</time></trkpt>
<trkpt lat="48.03851525" lon="0.42354385"><ele>69.352295</ele><time>2007-07-26T18:06:35Z</time></trkpt>
<trkpt lat="48.03849086" lon="0.42344972"><ele>68.390869</ele><time>2007-07-26T18:06:36Z</time></trkpt>
<trkpt lat="48.03834259" lon="0.42307874"><ele>68.390869</ele><time>2007-07-26T18:06:41Z</time></trkpt>
<trkpt lat="48.03827159" lon="0.42288328"><ele>67.910278</ele><time>2007-07-26T18:06:44Z</time></trkpt>
<trkpt lat="48.03824812" lon="0.42263014"><ele>65.987671</ele><time>2007-07-26T18:06:48Z</time></trkpt>
<trkpt lat="48.03827947" lon="0.42229948"><ele>65.026367</ele><time>2007-07-26T18:06:52Z</time></trkpt>
<trkpt lat="48.03827184" lon="0.42161585"><ele>64.065063</ele><time>2007-07-26T18:06:59Z</time></trkpt>
<trkpt lat="48.03822717" lon="0.42114277"><ele>64.065063</ele><time>2007-07-26T18:07:04Z</time></trkpt>
<trkpt lat="48.03822063" lon="0.42104856"><ele>64.065063</ele><time>2007-07-26T18:07:05Z</time></trkpt>
<trkpt lat="48.03813849" lon="0.42081278"><ele>64.545654</ele><time>2007-07-26T18:07:08Z</time></trkpt>
<trkpt lat="48.03798124" lon="0.42055160"><ele>65.026367</ele><time>2007-07-26T18:07:12Z</time></trkpt>
<trkpt lat="48.03796632" lon="0.42046426"><ele>65.50708</ele><time>2007-07-26T18:07:13Z</time></trkpt>
<trkpt lat="48.03787655" lon="0.41982028"><ele>67.429688</ele><time>2007-07-26T18:07:19Z</time></trkpt>
<trkpt lat="48.03784923" lon="0.41960872"><ele>67.910278</ele><time>2007-07-26T18:07:21Z</time></trkpt>
<trkpt lat="48.03782148" lon="0.41917110"><ele>67.429688</ele><time>2007-07-26T18:07:25Z</time></trkpt>
<trkpt lat="48.03785618" lon="0.41897027"><ele>65.987671</ele><time>2007-07-26T18:07:27Z</time></trkpt>
<trkpt lat="48.03801930" lon="0.41864262"><ele>65.50708</ele><time>2007-07-26T18:07:31Z</time></trkpt>
<trkpt lat="48.03827377" lon="0.41829385"><ele>65.026367</ele><time>2007-07-26T18:07:36Z</time></trkpt>
<trkpt lat="48.03841442" lon="0.41791859"><ele>63.103638</ele><time>2007-07-26T18:07:40Z</time></trkpt>
<trkpt lat="48.03851022" lon="0.41761760"><ele>63.584351</ele><time>2007-07-26T18:07:44Z</time></trkpt>
<trkpt lat="48.03870100" lon="0.41763838"><ele>63.103638</ele><time>2007-07-26T18:07:48Z</time></trkpt>
<trkpt lat="48.03889328" lon="0.41769278"><ele>63.103638</ele><time>2007-07-26T18:07:52Z</time></trkpt>
<trkpt lat="48.03905706" lon="0.41783075"><ele>63.103638</ele><time>2007-07-26T18:07:56Z</time></trkpt>
<trkpt lat="48.03912252" lon="0.41808832"><ele>63.103638</ele><time>2007-07-26T18:08:00Z</time></trkpt>
<trkpt lat="48.03912286" lon="0.41823828"><ele>63.584351</ele><time>2007-07-26T18:08:02Z</time></trkpt>
<trkpt lat="48.03917122" lon="0.41884094"><ele>63.584351</ele><time>2007-07-26T18:08:10Z</time></trkpt>
<trkpt lat="48.03919243" lon="0.41922089"><ele>63.584351</ele><time>2007-07-26T18:08:15Z</time></trkpt>
<trkpt lat="48.03924129" lon="0.41940822"><ele>63.584351</ele><time>2007-07-26T18:08:19Z</time></trkpt>
<trkpt lat="48.03927524" lon="0.41940236"><ele>64.065063</ele><time>2007-07-26T18:08:20Z</time></trkpt>
<trkpt lat="48.03949937" lon="0.41938609"><ele>63.584351</ele><time>2007-07-26T18:08:25Z</time></trkpt>
<trkpt lat="48.03960197" lon="0.41938995"><ele>63.584351</ele><time>2007-07-26T18:08:27Z</time></trkpt>
<trkpt lat="48.03975636" lon="0.41935810"><ele>64.545654</ele><time>2007-07-26T18:08:30Z</time></trkpt>
<trkpt lat="48.03996272" lon="0.41932206"><ele>63.584351</ele><time>2007-07-26T18:08:34Z</time></trkpt>
<trkpt lat="48.04027160" lon="0.41923086"><ele>64.065063</ele><time>2007-07-26T18:08:40Z</time></trkpt>
<trkpt lat="48.04071332" lon="0.41912382"><ele>63.103638</ele><time>2007-07-26T18:08:48Z</time></trkpt>
<trkpt lat="48.04098213" lon="0.41905819"><ele>62.622925</ele><time>2007-07-26T18:08:53Z</time></trkpt>
<trkpt lat="48.04133702" lon="0.41899064"><ele>62.142334</ele><time>2007-07-26T18:09:00Z</time></trkpt>
<trkpt lat="48.04137197" lon="0.41900522"><ele>62.142334</ele><time>2007-07-26T18:09:01Z</time></trkpt>
<trkpt lat="48.04149267" lon="0.41895426"><ele>62.622925</ele><time>2007-07-26T18:09:06Z</time></trkpt>
<trkpt lat="48.04160097" lon="0.41904302"><ele>63.103638</ele><time>2007-07-26T18:09:09Z</time></trkpt>
<trkpt lat="48.04203096" lon="0.41950839"><ele>62.142334</ele><time>2007-07-26T18:09:19Z</time></trkpt>
<trkpt lat="48.04236204" lon="0.41985255"><ele>62.622925</ele><time>2007-07-26T18:09:26Z</time></trkpt>
<trkpt lat="48.04264183" lon="0.42015052"><ele>62.142334</ele><time>2007-07-26T18:09:32Z</time></trkpt>
<trkpt lat="48.04303042" lon="0.42056610"><ele>61.661743</ele><time>2007-07-26T18:09:40Z</time></trkpt>
<trkpt lat="48.04307526" lon="0.42062469"><ele>62.142334</ele><time>2007-07-26T18:09:41Z</time></trkpt>
<trkpt lat="48.04318364" lon="0.42082326"><ele>61.661743</ele><time>2007-07-26T18:09:44Z</time></trkpt>
<trkpt lat="48.04333929" lon="0.42093012"><ele>60.700317</ele><time>2007-07-26T18:09:48Z</time></trkpt>
<trkpt lat="48.04338405" lon="0.42091236"><ele>60.700317</ele><time>2007-07-26T18:09:49Z</time></trkpt>
<trkpt lat="48.04387506" lon="0.42059502"><ele>61.18103</ele><time>2007-07-26T18:09:59Z</time></trkpt>
<trkpt lat="48.04429248" lon="0.42030198"><ele>60.219727</ele><time>2007-07-26T18:10:07Z</time></trkpt>
<trkpt lat="48.04452868" lon="0.42007090"><ele>60.700317</ele><time>2007-07-26T18:10:12Z</time></trkpt>
<trkpt lat="48.04470529" lon="0.41988582"><ele>60.219727</ele><time>2007-07-26T18:10:16Z</time></trkpt>
<trkpt lat="48.04509228" lon="0.41948014"><ele>59.739136</ele><time>2007-07-26T18:10:24Z</time></trkpt>
<trkpt lat="48.04535799" lon="0.41918719"><ele>59.739136</ele><time>2007-07-26T18:10:30Z</time></trkpt>
<trkpt lat="48.04551314" lon="0.41902584"><ele>60.219727</ele><time>2007-07-26T18:10:34Z</time></trkpt>
<trkpt lat="48.04564708" lon="0.41905803"><ele>60.700317</ele><time>2007-07-26T18:10:37Z</time></trkpt>
<trkpt lat="48.04571338" lon="0.41917009"><ele>60.219727</ele><time>2007-07-26T18:10:39Z</time></trkpt>
<trkpt lat="48.04595419" lon="0.41958458"><ele>59.258423</ele><time>2007-07-26T18:10:46Z</time></trkpt>
<trkpt lat="48.04626206" lon="0.42010996"><ele>60.219727</ele><time>2007-07-26T18:10:55Z</time></trkpt>
<trkpt lat="48.04632979" lon="0.42021867"><ele>60.219727</ele><time>2007-07-26T18:10:57Z</time></trkpt>
<trkpt lat="48.04654352" lon="0.42037566"><ele>60.700317</ele><time>2007-07-26T18:11:02Z</time></trkpt>
<trkpt lat="48.04659147" lon="0.42037725"><ele>59.739136</ele><time>2007-07-26T18:11:03Z</time></trkpt>
<trkpt lat="48.04701475" lon="0.42032386"><ele>60.219727</ele><time>2007-07-26T18:11:12Z</time></trkpt>
<trkpt lat="48.04705532" lon="0.42031095"><ele>60.219727</ele><time>2007-07-26T18:11:13Z</time></trkpt>
<trkpt lat="48.04721089" lon="0.42026896"><ele>60.700317</ele><time>2007-07-26T18:11:18Z</time></trkpt>
<trkpt lat="48.04729949" lon="0.42045353"><ele>60.700317</ele><time>2007-07-26T18:11:22Z</time></trkpt>
<trkpt lat="48.04730535" lon="0.42050935"><ele>60.700317</ele><time>2007-07-26T18:11:23Z</time></trkpt>
<trkpt lat="48.04736336" lon="0.42115568"><ele>60.700317</ele><time>2007-07-26T18:11:34Z</time></trkpt>
<trkpt lat="48.04742832" lon="0.42160286"><ele>60.219727</ele><time>2007-07-26T18:11:42Z</time></trkpt>
<trkpt lat="48.04739068" lon="0.42178424"><ele>60.219727</ele><time>2007-07-26T18:11:46Z</time></trkpt>
<trkpt lat="48.04720586" lon="0.42196018"><ele>60.219727</ele><time>2007-07-26T18:11:52Z</time></trkpt>
<trkpt lat="48.04690286" lon="0.42216352"><ele>60.219727</ele><time>2007-07-26T18:12:01Z</time></trkpt>
<trkpt lat="48.04661938" lon="0.42227928"><ele>60.219727</ele><time>2007-07-26T18:12:09Z</time></trkpt>
<trkpt lat="48.04637220" lon="0.42236762"><ele>59.258423</ele><time>2007-07-26T18:12:16Z</time></trkpt>
<trkpt lat="48.04624119" lon="0.42244599"><ele>60.700317</ele><time>2007-07-26T18:12:20Z</time></trkpt>
<trkpt lat="48.04606969" lon="0.42256242"><ele>59.739136</ele><time>2007-07-26T18:12:26Z</time></trkpt>
<trkpt lat="48.04599619" lon="0.42263584"><ele>59.739136</ele><time>2007-07-26T18:12:30Z</time></trkpt>
<trkpt lat="48.04597674" lon="0.42256535"><ele>59.739136</ele><time>2007-07-26T18:12:34Z</time></trkpt>
<trkpt lat="48.04597548" lon="0.42251699"><ele>59.258423</ele><time>2007-07-26T18:12:36Z</time></trkpt>
<trkpt lat="48.04607372" lon="0.42245337"><ele>59.739136</ele><time>2007-07-26T18:12:41Z</time></trkpt>
<trkpt lat="48.04629852" lon="0.42229495"><ele>60.219727</ele><time>2007-07-26T18:12:49Z</time></trkpt>
<trkpt lat="48.04652232" lon="0.42219940"><ele>60.219727</ele><time>2007-07-26T18:12:56Z</time></trkpt>
<trkpt lat="48.04684284" lon="0.42205942"><ele>60.219727</ele><time>2007-07-26T18:13:05Z</time></trkpt>
<trkpt lat="48.04718809" lon="0.42182263"><ele>59.739136</ele><time>2007-07-26T18:13:15Z</time></trkpt>
<trkpt lat="48.04741834" lon="0.42166027"><ele>60.219727</ele><time>2007-07-26T18:13:22Z</time></trkpt>
<trkpt lat="48.04762806" lon="0.42164653"><ele>59.739136</ele><time>2007-07-26T18:13:28Z</time></trkpt>
<trkpt lat="48.04780869" lon="0.42150387"><ele>60.219727</ele><time>2007-07-26T18:13:34Z</time></trkpt>
<trkpt lat="48.04792888" lon="0.42133137"><ele>59.739136</ele><time>2007-07-26T18:13:39Z</time></trkpt>
<trkpt lat="48.04809384" lon="0.42098159"><ele>60.219727</ele><time>2007-07-26T18:13:47Z</time></trkpt>
<trkpt lat="48.04820188" lon="0.42070390"><ele>59.739136</ele><time>2007-07-26T18:13:53Z</time></trkpt>
<trkpt lat="48.04833214" lon="0.42035479"><ele>60.219727</ele><time>2007-07-26T18:14:01Z</time></trkpt>
<trkpt lat="48.04838134" lon="0.42012429"><ele>59.739136</ele><time>2007-07-26T18:14:06Z</time></trkpt>
<trkpt lat="48.04838612" lon="0.41979086"><ele>60.700317</ele><time>2007-07-26T18:14:13Z</time></trkpt>
<trkpt lat="48.04833314" lon="0.41952322"><ele>60.700317</ele><time>2007-07-26T18:14:19Z</time></trkpt>
<trkpt lat="48.04822535" lon="0.41927973"><ele>60.700317</ele><time>2007-07-26T18:14:26Z</time></trkpt>
<trkpt lat="48.04803626" lon="0.41905853"><ele>60.219727</ele><time>2007-07-26T18:14:35Z</time></trkpt>
<trkpt lat="48.04785336" lon="0.41888435"><ele>60.219727</ele><time>2007-07-26T18:14:43Z</time></trkpt>
<trkpt lat="48.04776007" lon="0.41877497"><ele>60.700317</ele><time>2007-07-26T18:14:48Z</time></trkpt>
<trkpt lat="48.04757869" lon="0.41865033"><ele>60.700317</ele><time>2007-07-26T18:14:55Z</time></trkpt>
<trkpt lat="48.04741449" lon="0.41866768"><ele>60.700317</ele><time>2007-07-26T18:15:01Z</time></trkpt>
<trkpt lat="48.04724752" lon="0.41876642"><ele>59.739136</ele><time>2007-07-26T18:15:07Z</time></trkpt>
<trkpt lat="48.04707418" lon="0.41876785"><ele>59.739136</ele><time>2007-07-26T18:15:13Z</time></trkpt>
<trkpt lat="48.04696773" lon="0.41875527"><ele>58.77771</ele><time>2007-07-26T18:15:17Z</time></trkpt>
<trkpt lat="48.04671887" lon="0.41881319"><ele>59.739136</ele><time>2007-07-26T18:15:25Z</time></trkpt>
<trkpt lat="48.04650094" lon="0.41875158"><ele>59.739136</ele><time>2007-07-26T18:15:32Z</time></trkpt>
<trkpt lat="48.04620347" lon="0.41872853"><ele>58.77771</ele><time>2007-07-26T18:15:40Z</time></trkpt>
<trkpt lat="48.04616525" lon="0.41874454"><ele>59.258423</ele><time>2007-07-26T18:15:41Z</time></trkpt>
<trkpt lat="48.04588638" lon="0.41895443"><ele>59.739136</ele><time>2007-07-26T18:15:49Z</time></trkpt>
<trkpt lat="48.04586057" lon="0.41898804"><ele>58.77771</ele><time>2007-07-26T18:15:50Z</time></trkpt>
<trkpt lat="48.04581648" lon="0.41904428"><ele>59.258423</ele><time>2007-07-26T18:15:57Z</time></trkpt>
<trkpt lat="48.04574867" lon="0.41904428"><ele>59.258423</ele><time>2007-07-26T18:16:00Z</time></trkpt>
<trkpt lat="48.04560953" lon="0.41901243"><ele>59.739136</ele><time>2007-07-26T18:16:05Z</time></trkpt>
<trkpt lat="48.04550719" lon="0.41884538"><ele>58.77771</ele><time>2007-07-26T18:16:09Z</time></trkpt>
<trkpt lat="48.04544675" lon="0.41860289"><ele>58.297119</ele><time>2007-07-26T18:16:13Z</time></trkpt>
<trkpt lat="48.04541255" lon="0.41848487"><ele>58.297119</ele><time>2007-07-26T18:16:15Z</time></trkpt>
<trkpt lat="48.04526545" lon="0.41816804"><ele>58.77771</ele><time>2007-07-26T18:16:21Z</time></trkpt>
<trkpt lat="48.04521139" lon="0.41803434"><ele>58.297119</ele><time>2007-07-26T18:16:24Z</time></trkpt>
<trkpt lat="48.04505548" lon="0.41798213"><ele>58.77771</ele><time>2007-07-26T18:16:29Z</time></trkpt>
<trkpt lat="48.04501383" lon="0.41794952"><ele>58.77771</ele><time>2007-07-26T18:16:30Z</time></trkpt>
<trkpt lat="48.04483454" lon="0.41762849"><ele>58.297119</ele><time>2007-07-26T18:16:36Z</time></trkpt>
<trkpt lat="48.04469967" lon="0.41732063"><ele>59.258423</ele><time>2007-07-26T18:16:41Z</time></trkpt>
<trkpt lat="48.04457512" lon="0.41704654"><ele>59.739136</ele><time>2007-07-26T18:16:46Z</time></trkpt>
<trkpt lat="48.04454033" lon="0.41694948"><ele>59.258423</ele><time>2007-07-26T18:16:48Z</time></trkpt>
<trkpt lat="48.04446892" lon="0.41695484"><ele>58.77771</ele><time>2007-07-26T18:16:52Z</time></trkpt>
<trkpt lat="48.04448484" lon="0.41703665"><ele>58.297119</ele><time>2007-07-26T18:16:54Z</time></trkpt>
<trkpt lat="48.04456523" lon="0.41724276"><ele>59.258423</ele><time>2007-07-26T18:16:57Z</time></trkpt>
<trkpt lat="48.04471442" lon="0.41783343"><ele>60.219727</ele><time>2007-07-26T18:17:02Z</time></trkpt>
<trkpt lat="48.04478944" lon="0.41825378"><ele>60.700317</ele><time>2007-07-26T18:17:05Z</time></trkpt>
<trkpt lat="48.04483982" lon="0.41850742"><ele>60.219727</ele><time>2007-07-26T18:17:07Z</time></trkpt>
<trkpt lat="48.04495792" lon="0.41883783"><ele>60.219727</ele><time>2007-07-26T18:17:10Z</time></trkpt>
<trkpt lat="48.04500343" lon="0.41893406"><ele>60.219727</ele><time>2007-07-26T18:17:11Z</time></trkpt>
<trkpt lat="48.04511248" lon="0.41909273"><ele>59.739136</ele><time>2007-07-26T18:17:13Z</time></trkpt>
<trkpt lat="48.04527509" lon="0.41925659"><ele>59.739136</ele><time>2007-07-26T18:17:16Z</time></trkpt>
<trkpt lat="48.04541934" lon="0.41924058"><ele>59.739136</ele><time>2007-07-26T18:17:20Z</time></trkpt>
<trkpt lat="48.04544642" lon="0.41922332"><ele>59.258423</ele><time>2007-07-26T18:17:21Z</time></trkpt>
<trkpt lat="48.04549377" lon="0.41913464"><ele>59.258423</ele><time>2007-07-26T18:17:54Z</time></trkpt>
<trkpt lat="48.04555840" lon="0.41903229"><ele>59.739136</ele><time>2007-07-26T18:17:57Z</time></trkpt>
<trkpt lat="48.04580273" lon="0.41875225"><ele>60.219727</ele><time>2007-07-26T18:18:02Z</time></trkpt>
<trkpt lat="48.04598579" lon="0.41854950"><ele>60.700317</ele><time>2007-07-26T18:18:05Z</time></trkpt>
<trkpt lat="48.04613776" lon="0.41826476"><ele>62.142334</ele><time>2007-07-26T18:18:08Z</time></trkpt>
<trkpt lat="48.04616709" lon="0.41814574"><ele>62.142334</ele><time>2007-07-26T18:18:09Z</time></trkpt>
<trkpt lat="48.04626944" lon="0.41769337"><ele>63.103638</ele><time>2007-07-26T18:18:13Z</time></trkpt>
<trkpt lat="48.04633959" lon="0.41736463"><ele>62.622925</ele><time>2007-07-26T18:18:16Z</time></trkpt>
<trkpt lat="48.04635879" lon="0.41725089"><ele>63.103638</ele><time>2007-07-26T18:18:17Z</time></trkpt>
<trkpt lat="48.04648334" lon="0.41697554"><ele>61.661743</ele><time>2007-07-26T18:18:20Z</time></trkpt>
<trkpt lat="48.04675207" lon="0.41690363"><ele>63.103638</ele><time>2007-07-26T18:18:24Z</time></trkpt>
<trkpt lat="48.04711215" lon="0.41687362"><ele>62.622925</ele><time>2007-07-26T18:18:30Z</time></trkpt>
<trkpt lat="48.04741273" lon="0.41684487"><ele>63.103638</ele><time>2007-07-26T18:18:36Z</time></trkpt>
<trkpt lat="48.04767667" lon="0.41680606"><ele>64.545654</ele><time>2007-07-26T18:18:42Z</time></trkpt>
<trkpt lat="48.04772227" lon="0.41679667"><ele>64.065063</ele><time>2007-07-26T18:18:43Z</time></trkpt>
<trkpt lat="48.04781908" lon="0.41677488"><ele>63.584351</ele><time>2007-07-26T18:18:45Z</time></trkpt>
<trkpt lat="48.04813449" lon="0.41675627"><ele>62.622925</ele><time>2007-07-26T18:18:52Z</time></trkpt>
<trkpt lat="48.04834672" lon="0.41670397"><ele>62.622925</ele><time>2007-07-26T18:18:58Z</time></trkpt>
<trkpt lat="48.04867965" lon="0.41666483"><ele>63.103638</ele><time>2007-07-26T18:19:05Z</time></trkpt>
<trkpt lat="48.04900059" lon="0.41660188"><ele>62.622925</ele><time>2007-07-26T18:19:11Z</time></trkpt>
<trkpt lat="48.04937627" lon="0.41651672"><ele>63.103638</ele><time>2007-07-26T18:19:18Z</time></trkpt>
<trkpt lat="48.04947903" lon="0.41648638"><ele>63.103638</ele><time>2007-07-26T18:19:20Z</time></trkpt>
<trkpt lat="48.04960635" lon="0.41631077"><ele>63.103638</ele><time>2007-07-26T18:19:24Z</time></trkpt>
<trkpt lat="48.04959630" lon="0.41615873"><ele>63.103638</ele><time>2007-07-26T18:19:26Z</time></trkpt>
<trkpt lat="48.04951767" lon="0.41551483"><ele>63.584351</ele><time>2007-07-26T18:19:34Z</time></trkpt>
<trkpt lat="48.04948934" lon="0.41512264"><ele>64.545654</ele><time>2007-07-26T18:19:39Z</time></trkpt>
<trkpt lat="48.04957182" lon="0.41480228"><ele>63.584351</ele><time>2007-07-26T18:19:44Z</time></trkpt>
<trkpt lat="48.04958012" lon="0.41473296"><ele>65.026367</ele><time>2007-07-26T18:19:45Z</time></trkpt>
<trkpt lat="48.04962303" lon="0.41415093"><ele>64.065063</ele><time>2007-07-26T18:19:53Z</time></trkpt>
<trkpt lat="48.04964793" lon="0.41380308"><ele>64.545654</ele><time>2007-07-26T18:19:58Z</time></trkpt>
<trkpt lat="48.04955799" lon="0.41365874"><ele>64.065063</ele><time>2007-07-26T18:20:02Z</time></trkpt>
<trkpt lat="48.04951935" lon="0.41365379"><ele>64.065063</ele><time>2007-07-26T18:20:03Z</time></trkpt>
<trkpt lat="48.04921199" lon="0.41364642"><ele>63.584351</ele><time>2007-07-26T18:20:10Z</time></trkpt>
<trkpt lat="48.04902264" lon="0.41363309"><ele>63.584351</ele><time>2007-07-26T18:20:15Z</time></trkpt>
<trkpt lat="48.04880253" lon="0.41359344"><ele>62.622925</ele><time>2007-07-26T18:20:22Z</time></trkpt>
<trkpt lat="48.04869466" lon="0.41356587"><ele>62.622925</ele><time>2007-07-26T18:20:26Z</time></trkpt>
<trkpt lat="48.04857144" lon="0.41346109"><ele>62.622925</ele><time>2007-07-26T18:20:31Z</time></trkpt>
<trkpt lat="48.04845158" lon="0.41342539"><ele>61.661743</ele><time>2007-07-26T18:20:37Z</time></trkpt>
</trkseg></trk></gpx>